<?xml version='1.0' encoding='UTF-8'?><gpx version="1.1" creator="JPX - https://github.com/jenetics/jpx" xmlns="http://www.topografix.com/GPX/1/1"><trk><trkseg><trkpt lat="9.9914893" lon="-84.1705067"><ele>990.0</ele><time>2026-04-13T21:33:49.552Z</time></trkpt><trkpt lat="9.9914267" lon="-84.1705691"><ele>990.0</ele><time>2026-04-13T21:34:01.552Z</time></trkpt><trkpt lat="9.9913555" lon="-84.1706167"><ele>990.0</ele><time>2026-04-13T21:34:16.551Z</time></trkpt><trkpt lat="9.9908148" lon="-84.1704117"><ele>990.0</ele><time>2026-04-13T21:34:25.552Z</time></trkpt><trkpt lat="9.9907559" lon="-84.1701693"><ele>990.0</ele><time>2026-04-13T21:34:40.552Z</time></trkpt><trkpt lat="9.9908319" lon="-84.1701512"><ele>990.0</ele><time>2026-04-13T21:35:43.551Z</time></trkpt><trkpt lat="9.9908768" lon="-84.1700815"><ele>990.0</ele><time>2026-04-13T21:35:46.552Z</time></trkpt><trkpt lat="9.99089" lon="-84.1700052"><ele>990.0</ele><time>2026-04-13T21:36:00.551Z</time></trkpt><trkpt lat="9.990853" lon="-84.1699521"><ele>990.0</ele><time>2026-04-13T21:36:06.551Z</time></trkpt><trkpt lat="9.9907863" lon="-84.1699189"><ele>990.0</ele><time>2026-04-13T21:36:23.552Z</time></trkpt><trkpt lat="9.9907169" lon="-84.1698595"><ele>990.0</ele><time>2026-04-13T21:36:26.553Z</time></trkpt><trkpt lat="9.9907055" lon="-84.1697472"><ele>990.0</ele><time>2026-04-13T21:36:28.552Z</time></trkpt><trkpt lat="9.990716" lon="-84.1696754"><ele>990.0</ele><time>2026-04-13T21:36:29.551Z</time></trkpt><trkpt lat="9.9907385" lon="-84.1696072"><ele>990.1666666666666</ele><time>2026-04-13T21:36:30.55Z</time></trkpt><trkpt lat="9.9907646" lon="-84.1695323"><ele>990.3333333333333</ele><time>2026-04-13T21:36:31.55Z</time></trkpt><trkpt lat="9.9907947" lon="-84.1694548"><ele>990.5</ele><time>2026-04-13T21:36:32.551Z</time></trkpt><trkpt lat="9.9908137" lon="-84.1693845"><ele>990.6666666666666</ele><time>2026-04-13T21:36:33.552Z</time></trkpt><trkpt lat="9.9908362" lon="-84.1693189"><ele>990.8333333333333</ele><time>2026-04-13T21:36:34.551Z</time></trkpt><trkpt lat="9.9908623" lon="-84.1692475"><ele>991.0</ele><time>2026-04-13T21:36:35.552Z</time></trkpt><trkpt lat="9.9908859" lon="-84.1691733"><ele>990.9999999999999</ele><time>2026-04-13T21:36:36.55Z</time></trkpt><trkpt lat="9.9909132" lon="-84.169104"><ele>991.0</ele><time>2026-04-13T21:36:37.55Z</time></trkpt><trkpt lat="9.9909369" lon="-84.1690285"><ele>991.0</ele><time>2026-04-13T21:36:38.552Z</time></trkpt><trkpt lat="9.9909613" lon="-84.1689478"><ele>991.0</ele><time>2026-04-13T21:36:39.552Z</time></trkpt><trkpt lat="9.9909903" lon="-84.1688597"><ele>990.9999999999999</ele><time>2026-04-13T21:36:40.551Z</time></trkpt><trkpt lat="9.9910205" lon="-84.1687708"><ele>991.0</ele><time>2026-04-13T21:36:41.551Z</time></trkpt><trkpt lat="9.9910505" lon="-84.1686704"><ele>991.0</ele><time>2026-04-13T21:36:42.551Z</time></trkpt><trkpt lat="9.9910832" lon="-84.1685687"><ele>991.0</ele><time>2026-04-13T21:36:43.552Z</time></trkpt><trkpt lat="9.9911191" lon="-84.1684504"><ele>991.0</ele><time>2026-04-13T21:36:44.552Z</time></trkpt><trkpt lat="9.9911593" lon="-84.1683362"><ele>991.0</ele><time>2026-04-13T21:36:45.552Z</time></trkpt><trkpt lat="9.9912073" lon="-84.1682294"><ele>991.0</ele><time>2026-04-13T21:36:46.551Z</time></trkpt><trkpt lat="9.9912397" lon="-84.1681268"><ele>990.9999999999999</ele><time>2026-04-13T21:36:47.551Z</time></trkpt><trkpt lat="9.9912711" lon="-84.1680289"><ele>990.9999999999999</ele><time>2026-04-13T21:36:48.551Z</time></trkpt><trkpt lat="9.9913055" lon="-84.1679285"><ele>991.0</ele><time>2026-04-13T21:36:49.55Z</time></trkpt><trkpt lat="9.9913402" lon="-84.1678292"><ele>991.0</ele><time>2026-04-13T21:36:50.552Z</time></trkpt><trkpt lat="9.9913742" lon="-84.1677255"><ele>991.0</ele><time>2026-04-13T21:36:51.551Z</time></trkpt><trkpt lat="9.9914054" lon="-84.1676284"><ele>990.9999999999999</ele><time>2026-04-13T21:36:52.551Z</time></trkpt><trkpt lat="9.9914375" lon="-84.1675416"><ele>990.9999999999999</ele><time>2026-04-13T21:36:53.551Z</time></trkpt><trkpt lat="9.9914675" lon="-84.1674441"><ele>991.0</ele><time>2026-04-13T21:36:54.551Z</time></trkpt><trkpt lat="9.9915009" lon="-84.1673507"><ele>991.0</ele><time>2026-04-13T21:36:55.551Z</time></trkpt><trkpt lat="9.991531" lon="-84.1672644"><ele>990.9999999999999</ele><time>2026-04-13T21:36:56.552Z</time></trkpt><trkpt lat="9.9915599" lon="-84.1671782"><ele>991.0</ele><time>2026-04-13T21:36:57.55Z</time></trkpt><trkpt lat="9.9915849" lon="-84.1671014"><ele>991.0</ele><time>2026-04-13T21:36:58.551Z</time></trkpt><trkpt lat="9.9916175" lon="-84.1670146"><ele>991.0</ele><time>2026-04-13T21:37:00.551Z</time></trkpt><trkpt lat="9.9916369" lon="-84.1669374"><ele>990.9999999999999</ele><time>2026-04-13T21:37:04.552Z</time></trkpt><trkpt lat="9.9916579" lon="-84.1668671"><ele>991.0</ele><time>2026-04-13T21:37:10.55Z</time></trkpt><trkpt lat="9.9916827" lon="-84.1667857"><ele>990.9999999999999</ele><time>2026-04-13T21:37:13.551Z</time></trkpt><trkpt lat="9.9917025" lon="-84.1667247"><ele>991.0</ele><time>2026-04-13T21:37:16.551Z</time></trkpt><trkpt lat="9.9917234" lon="-84.1666551"><ele>991.0</ele><time>2026-04-13T21:37:20.55Z</time></trkpt><trkpt lat="9.9917012" lon="-84.1665743"><ele>991.0</ele><time>2026-04-13T21:37:26.551Z</time></trkpt><trkpt lat="9.9916051" lon="-84.1665124"><ele>990.9999999999999</ele><time>2026-04-13T21:37:28.551Z</time></trkpt><trkpt lat="9.9915225" lon="-84.1664796"><ele>991.0</ele><time>2026-04-13T21:37:29.551Z</time></trkpt><trkpt lat="9.9914264" lon="-84.1664448"><ele>989.0</ele><time>2026-04-13T21:37:30.55Z</time></trkpt><trkpt lat="9.9913284" lon="-84.1664061"><ele>987.0</ele><time>2026-04-13T21:37:31.551Z</time></trkpt><trkpt lat="9.9912197" lon="-84.1663571"><ele>985.0</ele><time>2026-04-13T21:37:32.552Z</time></trkpt><trkpt lat="9.9910972" lon="-84.1662889"><ele>983.0</ele><time>2026-04-13T21:37:33.55Z</time></trkpt><trkpt lat="9.9909808" lon="-84.1662197"><ele>983.0</ele><time>2026-04-13T21:37:34.55Z</time></trkpt><trkpt lat="9.990865" lon="-84.1661549"><ele>983.0</ele><time>2026-04-13T21:37:35.552Z</time></trkpt><trkpt lat="9.9907395" lon="-84.1660957"><ele>983.0</ele><time>2026-04-13T21:37:36.55Z</time></trkpt><trkpt lat="9.9906014" lon="-84.1660415"><ele>983.0</ele><time>2026-04-13T21:37:37.551Z</time></trkpt><trkpt lat="9.9904564" lon="-84.1659761"><ele>982.0</ele><time>2026-04-13T21:37:38.551Z</time></trkpt><trkpt lat="9.9903098" lon="-84.1659099"><ele>981.0</ele><time>2026-04-13T21:37:39.551Z</time></trkpt><trkpt lat="9.9901589" lon="-84.1658441"><ele>980.0</ele><time>2026-04-13T21:37:40.551Z</time></trkpt><trkpt lat="9.9900004" lon="-84.1657737"><ele>978.3333333333334</ele><time>2026-04-13T21:37:41.551Z</time></trkpt><trkpt lat="9.9898229" lon="-84.1656986"><ele>976.6666666666667</ele><time>2026-04-13T21:37:42.55Z</time></trkpt><trkpt lat="9.9896328" lon="-84.165617"><ele>975.0</ele><time>2026-04-13T21:37:43.551Z</time></trkpt><trkpt lat="9.9894242" lon="-84.1655343"><ele>974.0</ele><time>2026-04-13T21:37:44.552Z</time></trkpt><trkpt lat="9.9892023" lon="-84.1654499"><ele>973.0</ele><time>2026-04-13T21:37:45.551Z</time></trkpt><trkpt lat="9.9889744" lon="-84.165366"><ele>973.0</ele><time>2026-04-13T21:37:46.552Z</time></trkpt><trkpt lat="9.9887384" lon="-84.1652779"><ele>973.0</ele><time>2026-04-13T21:37:47.55Z</time></trkpt><trkpt lat="9.988503" lon="-84.1651858"><ele>972.5</ele><time>2026-04-13T21:37:48.551Z</time></trkpt><trkpt lat="9.9882683" lon="-84.1651041"><ele>972.0</ele><time>2026-04-13T21:37:49.552Z</time></trkpt><trkpt lat="9.988046" lon="-84.1650196"><ele>972.0</ele><time>2026-04-13T21:37:50.551Z</time></trkpt><trkpt lat="9.9878207" lon="-84.1649338"><ele>972.0</ele><time>2026-04-13T21:37:51.55Z</time></trkpt><trkpt lat="9.987589" lon="-84.1648476"><ele>973.5</ele><time>2026-04-13T21:37:52.551Z</time></trkpt><trkpt lat="9.9873604" lon="-84.1647639"><ele>975.0</ele><time>2026-04-13T21:37:53.551Z</time></trkpt><trkpt lat="9.9871283" lon="-84.1646753"><ele>975.0</ele><time>2026-04-13T21:37:54.551Z</time></trkpt><trkpt lat="9.986901" lon="-84.1645885"><ele>975.0</ele><time>2026-04-13T21:37:55.551Z</time></trkpt><trkpt lat="9.9866744" lon="-84.1645006"><ele>975.5</ele><time>2026-04-13T21:37:56.551Z</time></trkpt><trkpt lat="9.9864403" lon="-84.1644161"><ele>976.0</ele><time>2026-04-13T21:37:57.552Z</time></trkpt><trkpt lat="9.9862077" lon="-84.1643271"><ele>976.0</ele><time>2026-04-13T21:37:58.551Z</time></trkpt><trkpt lat="9.985984" lon="-84.1642398"><ele>976.0</ele><time>2026-04-13T21:37:59.552Z</time></trkpt><trkpt lat="9.9857616" lon="-84.1641543"><ele>978.0</ele><time>2026-04-13T21:38:00.551Z</time></trkpt><trkpt lat="9.9855514" lon="-84.1640729"><ele>980.0</ele><time>2026-04-13T21:38:01.551Z</time></trkpt><trkpt lat="9.9853482" lon="-84.1639965"><ele>982.0</ele><time>2026-04-13T21:38:02.551Z</time></trkpt><trkpt lat="9.9851467" lon="-84.1639219"><ele>983.0</ele><time>2026-04-13T21:38:03.552Z</time></trkpt><trkpt lat="9.9849424" lon="-84.1638419"><ele>984.0</ele><time>2026-04-13T21:38:04.551Z</time></trkpt><trkpt lat="9.9847389" lon="-84.1637576"><ele>985.0</ele><time>2026-04-13T21:38:05.551Z</time></trkpt><trkpt lat="9.9845292" lon="-84.1636749"><ele>985.0</ele><time>2026-04-13T21:38:06.551Z</time></trkpt><trkpt lat="9.9843157" lon="-84.1635884"><ele>985.0</ele><time>2026-04-13T21:38:07.551Z</time></trkpt><trkpt lat="9.9841029" lon="-84.1635017"><ele>987.0</ele><time>2026-04-13T21:38:08.55Z</time></trkpt><trkpt lat="9.9838883" lon="-84.1634213"><ele>989.0</ele><time>2026-04-13T21:38:09.551Z</time></trkpt><trkpt lat="9.9836691" lon="-84.1633479"><ele>989.0</ele><time>2026-04-13T21:38:10.551Z</time></trkpt><trkpt lat="9.9834523" lon="-84.163271"><ele>989.0</ele><time>2026-04-13T21:38:11.551Z</time></trkpt><trkpt lat="9.9832349" lon="-84.1631927"><ele>993.0</ele><time>2026-04-13T21:38:12.55Z</time></trkpt><trkpt lat="9.9830177" lon="-84.1631072"><ele>997.0</ele><time>2026-04-13T21:38:13.551Z</time></trkpt><trkpt lat="9.9827988" lon="-84.1630183"><ele>997.0</ele><time>2026-04-13T21:38:14.551Z</time></trkpt><trkpt lat="9.9825784" lon="-84.1629198"><ele>997.0</ele><time>2026-04-13T21:38:15.552Z</time></trkpt><trkpt lat="9.9823682" lon="-84.1628072"><ele>998.0</ele><time>2026-04-13T21:38:16.55Z</time></trkpt><trkpt lat="9.9821643" lon="-84.1626854"><ele>999.0</ele><time>2026-04-13T21:38:17.55Z</time></trkpt><trkpt lat="9.9819692" lon="-84.162564"><ele>999.0</ele><time>2026-04-13T21:38:18.55Z</time></trkpt><trkpt lat="9.9817728" lon="-84.1624373"><ele>999.0</ele><time>2026-04-13T21:38:19.551Z</time></trkpt><trkpt lat="9.9815932" lon="-84.1623149"><ele>999.0</ele><time>2026-04-13T21:38:20.552Z</time></trkpt><trkpt lat="9.9814154" lon="-84.1621842"><ele>1000.0</ele><time>2026-04-13T21:38:21.55Z</time></trkpt><trkpt lat="9.9812446" lon="-84.1620457"><ele>1001.0</ele><time>2026-04-13T21:38:22.55Z</time></trkpt><trkpt lat="9.9810647" lon="-84.1619007"><ele>1002.0</ele><time>2026-04-13T21:38:23.551Z</time></trkpt><trkpt lat="9.9808923" lon="-84.1617473"><ele>1000.3333333333333</ele><time>2026-04-13T21:38:24.552Z</time></trkpt><trkpt lat="9.9807319" lon="-84.1615897"><ele>998.6666666666666</ele><time>2026-04-13T21:38:25.551Z</time></trkpt><trkpt lat="9.9805839" lon="-84.1614288"><ele>997.0</ele><time>2026-04-13T21:38:26.551Z</time></trkpt><trkpt lat="9.9804468" lon="-84.1612662"><ele>997.0</ele><time>2026-04-13T21:38:27.55Z</time></trkpt><trkpt lat="9.9803181" lon="-84.1611006"><ele>997.0</ele><time>2026-04-13T21:38:28.551Z</time></trkpt><trkpt lat="9.9801948" lon="-84.160925"><ele>997.0</ele><time>2026-04-13T21:38:29.55Z</time></trkpt><trkpt lat="9.9800744" lon="-84.1607459"><ele>995.3333333333333</ele><time>2026-04-13T21:38:30.551Z</time></trkpt><trkpt lat="9.9799602" lon="-84.1605609"><ele>993.6666666666667</ele><time>2026-04-13T21:38:31.552Z</time></trkpt><trkpt lat="9.9798511" lon="-84.1603738"><ele>992.0</ele><time>2026-04-13T21:38:32.552Z</time></trkpt><trkpt lat="9.9797437" lon="-84.1601867"><ele>992.0</ele><time>2026-04-13T21:38:33.552Z</time></trkpt><trkpt lat="9.9796398" lon="-84.1599887"><ele>992.0</ele><time>2026-04-13T21:38:34.552Z</time></trkpt><trkpt lat="9.9795322" lon="-84.1597949"><ele>992.0</ele><time>2026-04-13T21:38:35.551Z</time></trkpt><trkpt lat="9.9794253" lon="-84.1595903"><ele>991.0</ele><time>2026-04-13T21:38:36.551Z</time></trkpt><trkpt lat="9.9793131" lon="-84.1593855"><ele>990.0</ele><time>2026-04-13T21:38:37.551Z</time></trkpt><trkpt lat="9.9792073" lon="-84.1591884"><ele>988.6666666666667</ele><time>2026-04-13T21:38:38.551Z</time></trkpt><trkpt lat="9.9791086" lon="-84.159004"><ele>987.3333333333334</ele><time>2026-04-13T21:38:39.551Z</time></trkpt><trkpt lat="9.9790101" lon="-84.1588213"><ele>986.0</ele><time>2026-04-13T21:38:40.55Z</time></trkpt><trkpt lat="9.9789135" lon="-84.1586394"><ele>986.0</ele><time>2026-04-13T21:38:41.551Z</time></trkpt><trkpt lat="9.9788175" lon="-84.1584569"><ele>986.0</ele><time>2026-04-13T21:38:42.552Z</time></trkpt><trkpt lat="9.9787153" lon="-84.1582767"><ele>986.0</ele><time>2026-04-13T21:38:43.551Z</time></trkpt><trkpt lat="9.9786132" lon="-84.158095"><ele>985.6666666666667</ele><time>2026-04-13T21:38:44.552Z</time></trkpt><trkpt lat="9.9785158" lon="-84.1579141"><ele>985.3333333333333</ele><time>2026-04-13T21:38:45.551Z</time></trkpt><trkpt lat="9.9784195" lon="-84.1577329"><ele>985.0</ele><time>2026-04-13T21:38:46.551Z</time></trkpt><trkpt lat="9.9783188" lon="-84.1575574"><ele>985.0</ele><time>2026-04-13T21:38:47.551Z</time></trkpt><trkpt lat="9.9782195" lon="-84.1573742"><ele>985.0</ele><time>2026-04-13T21:38:48.551Z</time></trkpt><trkpt lat="9.9781225" lon="-84.1571984"><ele>985.0</ele><time>2026-04-13T21:38:49.55Z</time></trkpt><trkpt lat="9.9780266" lon="-84.157024"><ele>986.6666666666666</ele><time>2026-04-13T21:38:50.551Z</time></trkpt><trkpt lat="9.9779312" lon="-84.1568558"><ele>988.3333333333333</ele><time>2026-04-13T21:38:51.551Z</time></trkpt><trkpt lat="9.9778371" lon="-84.1566782"><ele>990.0</ele><time>2026-04-13T21:38:52.552Z</time></trkpt><trkpt lat="9.9777376" lon="-84.1564967"><ele>991.3333333333333</ele><time>2026-04-13T21:38:53.55Z</time></trkpt><trkpt lat="9.9776307" lon="-84.1563004"><ele>992.6666666666666</ele><time>2026-04-13T21:38:54.55Z</time></trkpt><trkpt lat="9.9775168" lon="-84.1561034"><ele>994.0</ele><time>2026-04-13T21:38:55.55Z</time></trkpt><trkpt lat="9.9774014" lon="-84.155903"><ele>991.5</ele><time>2026-04-13T21:38:56.552Z</time></trkpt><trkpt lat="9.9772816" lon="-84.1556915"><ele>989.0</ele><time>2026-04-13T21:38:57.55Z</time></trkpt><trkpt lat="9.9771626" lon="-84.1554776"><ele>989.0</ele><time>2026-04-13T21:38:58.551Z</time></trkpt><trkpt lat="9.9770437" lon="-84.1552598"><ele>989.0</ele><time>2026-04-13T21:38:59.55Z</time></trkpt><trkpt lat="9.9769277" lon="-84.1550362"><ele>990.0</ele><time>2026-04-13T21:39:00.55Z</time></trkpt><trkpt lat="9.9768087" lon="-84.154826"><ele>991.0</ele><time>2026-04-13T21:39:01.551Z</time></trkpt><trkpt lat="9.9766951" lon="-84.1546049"><ele>987.0</ele><time>2026-04-13T21:39:02.551Z</time></trkpt><trkpt lat="9.9765904" lon="-84.1543891"><ele>983.0</ele><time>2026-04-13T21:39:03.551Z</time></trkpt><trkpt lat="9.9764828" lon="-84.154194"><ele>983.3333333333334</ele><time>2026-04-13T21:39:04.551Z</time></trkpt><trkpt lat="9.9763807" lon="-84.1540006"><ele>983.6666666666667</ele><time>2026-04-13T21:39:05.551Z</time></trkpt><trkpt lat="9.9762748" lon="-84.153799"><ele>984.0</ele><time>2026-04-13T21:39:06.551Z</time></trkpt><trkpt lat="9.9761701" lon="-84.1536031"><ele>984.0</ele><time>2026-04-13T21:39:07.551Z</time></trkpt><trkpt lat="9.9760664" lon="-84.1534092"><ele>984.0</ele><time>2026-04-13T21:39:08.551Z</time></trkpt><trkpt lat="9.9759589" lon="-84.1532149"><ele>984.0</ele><time>2026-04-13T21:39:09.551Z</time></trkpt><trkpt lat="9.9758536" lon="-84.15302"><ele>984.0</ele><time>2026-04-13T21:39:10.552Z</time></trkpt><trkpt lat="9.9757473" lon="-84.152815"><ele>984.0</ele><time>2026-04-13T21:39:11.55Z</time></trkpt><trkpt lat="9.9756375" lon="-84.1526205"><ele>984.0</ele><time>2026-04-13T21:39:12.551Z</time></trkpt><trkpt lat="9.9755326" lon="-84.152425"><ele>984.6666666666667</ele><time>2026-04-13T21:39:13.551Z</time></trkpt><trkpt lat="9.9754336" lon="-84.1522446"><ele>985.3333333333334</ele><time>2026-04-13T21:39:14.551Z</time></trkpt><trkpt lat="9.975325" lon="-84.1520598"><ele>986.0</ele><time>2026-04-13T21:39:15.551Z</time></trkpt><trkpt lat="9.9752322" lon="-84.1518906"><ele>986.0</ele><time>2026-04-13T21:39:16.549Z</time></trkpt><trkpt lat="9.9751425" lon="-84.1517297"><ele>986.0</ele><time>2026-04-13T21:39:17.55Z</time></trkpt><trkpt lat="9.9750594" lon="-84.1515668"><ele>986.0</ele><time>2026-04-13T21:39:18.55Z</time></trkpt><trkpt lat="9.9749815" lon="-84.1514129"><ele>984.6666666666667</ele><time>2026-04-13T21:39:19.551Z</time></trkpt><trkpt lat="9.9749041" lon="-84.1512714"><ele>983.3333333333333</ele><time>2026-04-13T21:39:20.55Z</time></trkpt><trkpt lat="9.9748253" lon="-84.1511327"><ele>982.0</ele><time>2026-04-13T21:39:21.55Z</time></trkpt><trkpt lat="9.9747577" lon="-84.1510025"><ele>982.0</ele><time>2026-04-13T21:39:22.551Z</time></trkpt><trkpt lat="9.9746931" lon="-84.1508766"><ele>982.0</ele><time>2026-04-13T21:39:23.549Z</time></trkpt><trkpt lat="9.9746288" lon="-84.1507476"><ele>982.0</ele><time>2026-04-13T21:39:24.55Z</time></trkpt><trkpt lat="9.9745678" lon="-84.1506244"><ele>982.0</ele><time>2026-04-13T21:39:25.551Z</time></trkpt><trkpt lat="9.9745092" lon="-84.1505163"><ele>982.4000000000001</ele><time>2026-04-13T21:39:26.551Z</time></trkpt><trkpt lat="9.9744533" lon="-84.1504116"><ele>982.8000000000001</ele><time>2026-04-13T21:39:27.551Z</time></trkpt><trkpt lat="9.9744017" lon="-84.150314"><ele>983.2</ele><time>2026-04-13T21:39:28.551Z</time></trkpt><trkpt lat="9.9743559" lon="-84.1502271"><ele>983.6</ele><time>2026-04-13T21:39:29.551Z</time></trkpt><trkpt lat="9.9743158" lon="-84.1501426"><ele>984.0</ele><time>2026-04-13T21:39:30.549Z</time></trkpt><trkpt lat="9.9742814" lon="-84.1500646"><ele>984.0</ele><time>2026-04-13T21:39:31.551Z</time></trkpt><trkpt lat="9.9742519" lon="-84.1499914"><ele>984.0</ele><time>2026-04-13T21:39:32.551Z</time></trkpt><trkpt lat="9.9742229" lon="-84.149922"><ele>984.0</ele><time>2026-04-13T21:39:33.551Z</time></trkpt><trkpt lat="9.9741916" lon="-84.1498537"><ele>984.0</ele><time>2026-04-13T21:39:34.551Z</time></trkpt><trkpt lat="9.9741616" lon="-84.149794"><ele>984.0</ele><time>2026-04-13T21:39:35.55Z</time></trkpt><trkpt lat="9.9741106" lon="-84.1496702"><ele>984.0</ele><time>2026-04-13T21:39:37.551Z</time></trkpt><trkpt lat="9.9740645" lon="-84.1495652"><ele>984.6666666666666</ele><time>2026-04-13T21:39:39.55Z</time></trkpt><trkpt lat="9.974037" lon="-84.1495009"><ele>985.3333333333333</ele><time>2026-04-13T21:39:40.55Z</time></trkpt><trkpt lat="9.9739962" lon="-84.1494058"><ele>986.0</ele><time>2026-04-13T21:39:42.55Z</time></trkpt><trkpt lat="9.9739592" lon="-84.1493247"><ele>986.6666666666666</ele><time>2026-04-13T21:39:45.55Z</time></trkpt><trkpt lat="9.9739309" lon="-84.1492665"><ele>987.3333333333333</ele><time>2026-04-13T21:39:48.55Z</time></trkpt><trkpt lat="9.9739023" lon="-84.1491947"><ele>988.0</ele><time>2026-04-13T21:39:51.55Z</time></trkpt><trkpt lat="9.9738698" lon="-84.1491097"><ele>988.6666666666666</ele><time>2026-04-13T21:39:54.552Z</time></trkpt><trkpt lat="9.9738435" lon="-84.149041"><ele>989.3333333333333</ele><time>2026-04-13T21:39:56.55Z</time></trkpt><trkpt lat="9.9738107" lon="-84.148942"><ele>990.0</ele><time>2026-04-13T21:39:58.551Z</time></trkpt><trkpt lat="9.9737824" lon="-84.148863"><ele>990.6666666666667</ele><time>2026-04-13T21:40:00.551Z</time></trkpt><trkpt lat="9.9737515" lon="-84.148782"><ele>991.3333333333334</ele><time>2026-04-13T21:40:02.55Z</time></trkpt><trkpt lat="9.9737216" lon="-84.1487108"><ele>992.0</ele><time>2026-04-13T21:40:04.55Z</time></trkpt><trkpt lat="9.9736824" lon="-84.1486231"><ele>992.0000000000001</ele><time>2026-04-13T21:40:07.551Z</time></trkpt><trkpt lat="9.9736548" lon="-84.1485421"><ele>992.0</ele><time>2026-04-13T21:40:09.551Z</time></trkpt><trkpt lat="9.973634" lon="-84.1484783"><ele>992.0</ele><time>2026-04-13T21:40:10.55Z</time></trkpt><trkpt lat="9.9736074" lon="-84.1484157"><ele>992.0</ele><time>2026-04-13T21:40:11.551Z</time></trkpt><trkpt lat="9.9735732" lon="-84.1483167"><ele>992.0000000000001</ele><time>2026-04-13T21:40:13.552Z</time></trkpt><trkpt lat="9.9735466" lon="-84.1482427"><ele>992.0</ele><time>2026-04-13T21:40:15.55Z</time></trkpt><trkpt lat="9.9735241" lon="-84.1481818"><ele>993.0</ele><time>2026-04-13T21:40:17.55Z</time></trkpt><trkpt lat="9.9734899" lon="-84.1480758"><ele>994.0</ele><time>2026-04-13T21:40:19.551Z</time></trkpt><trkpt lat="9.9734678" lon="-84.1479895"><ele>995.0</ele><time>2026-04-13T21:40:21.55Z</time></trkpt><trkpt lat="9.9734448" lon="-84.1479258"><ele>996.0</ele><time>2026-04-13T21:40:23.551Z</time></trkpt><trkpt lat="9.9733999" lon="-84.1478116"><ele>997.0</ele><time>2026-04-13T21:40:25.55Z</time></trkpt><trkpt lat="9.9733609" lon="-84.1477136"><ele>997.1666666666666</ele><time>2026-04-13T21:40:27.551Z</time></trkpt><trkpt lat="9.9733291" lon="-84.1476369"><ele>997.3333333333333</ele><time>2026-04-13T21:40:29.551Z</time></trkpt><trkpt lat="9.9732914" lon="-84.1475285"><ele>997.5</ele><time>2026-04-13T21:40:31.55Z</time></trkpt><trkpt lat="9.9732673" lon="-84.147468"><ele>997.6666666666667</ele><time>2026-04-13T21:40:32.55Z</time></trkpt><trkpt lat="9.9732398" lon="-84.1473972"><ele>997.8333333333334</ele><time>2026-04-13T21:40:33.55Z</time></trkpt><trkpt lat="9.9732117" lon="-84.1473262"><ele>998.0</ele><time>2026-04-13T21:40:34.55Z</time></trkpt><trkpt lat="9.9731867" lon="-84.1472589"><ele>998.0000000000001</ele><time>2026-04-13T21:40:35.55Z</time></trkpt><trkpt lat="9.9731616" lon="-84.1471893"><ele>998.0</ele><time>2026-04-13T21:40:36.551Z</time></trkpt><trkpt lat="9.9731359" lon="-84.1471253"><ele>998.0</ele><time>2026-04-13T21:40:37.551Z</time></trkpt><trkpt lat="9.9731029" lon="-84.1470348"><ele>998.0</ele><time>2026-04-13T21:40:39.549Z</time></trkpt><trkpt lat="9.9730828" lon="-84.1469587"><ele>998.0000000000001</ele><time>2026-04-13T21:40:41.55Z</time></trkpt><trkpt lat="9.9730532" lon="-84.1468986"><ele>998.0</ele><time>2026-04-13T21:40:43.551Z</time></trkpt><trkpt lat="9.9730232" lon="-84.1468224"><ele>998.0</ele><time>2026-04-13T21:40:45.551Z</time></trkpt><trkpt lat="9.972982" lon="-84.1467274"><ele>998.0</ele><time>2026-04-13T21:40:47.551Z</time></trkpt><trkpt lat="9.9729549" lon="-84.1466343"><ele>998.0</ele><time>2026-04-13T21:40:49.549Z</time></trkpt><trkpt lat="9.9729145" lon="-84.1465492"><ele>998.0</ele><time>2026-04-13T21:40:51.551Z</time></trkpt><trkpt lat="9.9728716" lon="-84.1464468"><ele>998.0</ele><time>2026-04-13T21:40:53.549Z</time></trkpt><trkpt lat="9.972837" lon="-84.1463671"><ele>998.1666666666667</ele><time>2026-04-13T21:40:54.549Z</time></trkpt><trkpt lat="9.9728093" lon="-84.1462898"><ele>998.3333333333334</ele><time>2026-04-13T21:40:55.551Z</time></trkpt><trkpt lat="9.9727771" lon="-84.1462033"><ele>998.5</ele><time>2026-04-13T21:40:56.551Z</time></trkpt><trkpt lat="9.9727527" lon="-84.1461335"><ele>998.6666666666667</ele><time>2026-04-13T21:40:57.55Z</time></trkpt><trkpt lat="9.9727255" lon="-84.1460623"><ele>998.8333333333334</ele><time>2026-04-13T21:40:58.55Z</time></trkpt><trkpt lat="9.9727012" lon="-84.145992"><ele>999.0</ele><time>2026-04-13T21:40:59.549Z</time></trkpt><trkpt lat="9.9726785" lon="-84.1459235"><ele>999.0</ele><time>2026-04-13T21:41:00.55Z</time></trkpt><trkpt lat="9.9726534" lon="-84.1458624"><ele>999.0</ele><time>2026-04-13T21:41:01.55Z</time></trkpt><trkpt lat="9.972612" lon="-84.1457665"><ele>999.0</ele><time>2026-04-13T21:41:03.55Z</time></trkpt><trkpt lat="9.972582" lon="-84.1456761"><ele>999.0</ele><time>2026-04-13T21:41:05.55Z</time></trkpt><trkpt lat="9.972559" lon="-84.1456112"><ele>999.0</ele><time>2026-04-13T21:41:06.552Z</time></trkpt><trkpt lat="9.9725374" lon="-84.14555"><ele>999.0</ele><time>2026-04-13T21:41:07.551Z</time></trkpt><trkpt lat="9.9725007" lon="-84.1454527"><ele>998.1666666666666</ele><time>2026-04-13T21:41:09.551Z</time></trkpt><trkpt lat="9.9724682" lon="-84.1453805"><ele>997.3333333333333</ele><time>2026-04-13T21:41:11.551Z</time></trkpt><trkpt lat="9.9724384" lon="-84.1453051"><ele>996.5</ele><time>2026-04-13T21:41:14.551Z</time></trkpt><trkpt lat="9.9724114" lon="-84.1452348"><ele>995.6666666666666</ele><time>2026-04-13T21:41:17.55Z</time></trkpt><trkpt lat="9.9723803" lon="-84.1451491"><ele>994.8333333333333</ele><time>2026-04-13T21:41:20.55Z</time></trkpt><trkpt lat="9.9723527" lon="-84.1450706"><ele>994.0</ele><time>2026-04-13T21:41:23.549Z</time></trkpt><trkpt lat="9.9723232" lon="-84.1449921"><ele>993.9999999999999</ele><time>2026-04-13T21:41:26.549Z</time></trkpt><trkpt lat="9.9722988" lon="-84.1449248"><ele>994.0</ele><time>2026-04-13T21:41:29.55Z</time></trkpt><trkpt lat="9.9722708" lon="-84.1448594"><ele>994.0</ele><time>2026-04-13T21:41:31.55Z</time></trkpt><trkpt lat="9.9722272" lon="-84.1447727"><ele>994.0</ele><time>2026-04-13T21:41:33.55Z</time></trkpt><trkpt lat="9.9722119" lon="-84.1447092"><ele>993.9999999999999</ele><time>2026-04-13T21:41:34.549Z</time></trkpt><trkpt lat="9.972191" lon="-84.1446486"><ele>994.0</ele><time>2026-04-13T21:41:35.55Z</time></trkpt><trkpt lat="9.9721488" lon="-84.1445403"><ele>993.9999999999999</ele><time>2026-04-13T21:41:37.549Z</time></trkpt><trkpt lat="9.9721159" lon="-84.1444571"><ele>994.0</ele><time>2026-04-13T21:41:39.549Z</time></trkpt><trkpt lat="9.9720988" lon="-84.1443842"><ele>994.0</ele><time>2026-04-13T21:41:41.549Z</time></trkpt><trkpt lat="9.9720676" lon="-84.1443167"><ele>994.0</ele><time>2026-04-13T21:41:43.551Z</time></trkpt><trkpt lat="9.9720171" lon="-84.1442359"><ele>993.9999999999999</ele><time>2026-04-13T21:41:45.551Z</time></trkpt><trkpt lat="9.9719849" lon="-84.1441492"><ele>994.0</ele><time>2026-04-13T21:41:47.551Z</time></trkpt><trkpt lat="9.971955" lon="-84.1440682"><ele>993.4999999999999</ele><time>2026-04-13T21:41:49.551Z</time></trkpt><trkpt lat="9.9719302" lon="-84.1439922"><ele>993.0</ele><time>2026-04-13T21:41:51.551Z</time></trkpt><trkpt lat="9.9719056" lon="-84.1439271"><ele>992.5</ele><time>2026-04-13T21:41:53.551Z</time></trkpt><trkpt lat="9.971879" lon="-84.1438524"><ele>992.0</ele><time>2026-04-13T21:41:56.549Z</time></trkpt><trkpt lat="9.9718584" lon="-84.1437792"><ele>991.4999999999999</ele><time>2026-04-13T21:42:00.55Z</time></trkpt><trkpt lat="9.9718327" lon="-84.1437007"><ele>991.0</ele><time>2026-04-13T21:42:04.55Z</time></trkpt><trkpt lat="9.9718093" lon="-84.1436283"><ele>990.9999999999999</ele><time>2026-04-13T21:42:08.55Z</time></trkpt><trkpt lat="9.9717849" lon="-84.1435497"><ele>991.0</ele><time>2026-04-13T21:42:12.55Z</time></trkpt><trkpt lat="9.9717583" lon="-84.1434866"><ele>991.0</ele><time>2026-04-13T21:42:15.551Z</time></trkpt><trkpt lat="9.9717312" lon="-84.143417"><ele>991.0</ele><time>2026-04-13T21:42:18.55Z</time></trkpt><trkpt lat="9.971701" lon="-84.143317"><ele>990.9999999999999</ele><time>2026-04-13T21:42:21.551Z</time></trkpt><trkpt lat="9.9716773" lon="-84.1432516"><ele>991.0</ele><time>2026-04-13T21:42:23.55Z</time></trkpt><trkpt lat="9.9716464" lon="-84.1431775"><ele>990.9999999999999</ele><time>2026-04-13T21:42:26.55Z</time></trkpt><trkpt lat="9.9716194" lon="-84.1431072"><ele>991.0</ele><time>2026-04-13T21:42:28.551Z</time></trkpt><trkpt lat="9.9715804" lon="-84.142997"><ele>991.0</ele><time>2026-04-13T21:42:30.55Z</time></trkpt><trkpt lat="9.9715516" lon="-84.1429307"><ele>991.0</ele><time>2026-04-13T21:42:31.549Z</time></trkpt><trkpt lat="9.9715241" lon="-84.1428675"><ele>990.9999999999999</ele><time>2026-04-13T21:42:32.55Z</time></trkpt><trkpt lat="9.9714892" lon="-84.1427555"><ele>991.0</ele><time>2026-04-13T21:42:34.55Z</time></trkpt><trkpt lat="9.9714625" lon="-84.1426928"><ele>990.9999999999999</ele><time>2026-04-13T21:42:35.55Z</time></trkpt><trkpt lat="9.9714195" lon="-84.1425863"><ele>991.0</ele><time>2026-04-13T21:42:37.55Z</time></trkpt><trkpt lat="9.9713791" lon="-84.1424809"><ele>991.0</ele><time>2026-04-13T21:42:39.551Z</time></trkpt><trkpt lat="9.9713548" lon="-84.1424212"><ele>991.0</ele><time>2026-04-13T21:42:40.55Z</time></trkpt><trkpt lat="9.9713297" lon="-84.1423589"><ele>990.9999999999999</ele><time>2026-04-13T21:42:41.551Z</time></trkpt><trkpt lat="9.9713072" lon="-84.1422923"><ele>991.0</ele><time>2026-04-13T21:42:42.55Z</time></trkpt><trkpt lat="9.9712626" lon="-84.1421812"><ele>991.6666666666666</ele><time>2026-04-13T21:42:44.55Z</time></trkpt><trkpt lat="9.9712156" lon="-84.1420626"><ele>992.3333333333333</ele><time>2026-04-13T21:42:46.549Z</time></trkpt><trkpt lat="9.9711935" lon="-84.1420011"><ele>993.0</ele><time>2026-04-13T21:42:47.551Z</time></trkpt><trkpt lat="9.9711695" lon="-84.1419377"><ele>993.6666666666667</ele><time>2026-04-13T21:42:48.55Z</time></trkpt><trkpt lat="9.971144" lon="-84.1418722"><ele>994.3333333333334</ele><time>2026-04-13T21:42:49.55Z</time></trkpt><trkpt lat="9.9711221" lon="-84.1418025"><ele>995.0</ele><time>2026-04-13T21:42:50.55Z</time></trkpt><trkpt lat="9.9710954" lon="-84.1417367"><ele>995.0</ele><time>2026-04-13T21:42:51.551Z</time></trkpt><trkpt lat="9.9710511" lon="-84.141618"><ele>995.0</ele><time>2026-04-13T21:42:53.55Z</time></trkpt><trkpt lat="9.9710076" lon="-84.1415"><ele>995.0</ele><time>2026-04-13T21:42:55.551Z</time></trkpt><trkpt lat="9.9709565" lon="-84.1413633"><ele>995.0</ele><time>2026-04-13T21:42:57.549Z</time></trkpt><trkpt lat="9.9709262" lon="-84.1412906"><ele>995.1666666666667</ele><time>2026-04-13T21:42:58.55Z</time></trkpt><trkpt lat="9.9708962" lon="-84.1412211"><ele>995.3333333333334</ele><time>2026-04-13T21:42:59.55Z</time></trkpt><trkpt lat="9.9708718" lon="-84.1411609"><ele>995.5</ele><time>2026-04-13T21:43:00.549Z</time></trkpt><trkpt lat="9.9708439" lon="-84.1410932"><ele>995.6666666666667</ele><time>2026-04-13T21:43:01.55Z</time></trkpt><trkpt lat="9.970803" lon="-84.1410163"><ele>995.8333333333334</ele><time>2026-04-13T21:43:02.549Z</time></trkpt><trkpt lat="9.9707664" lon="-84.140938"><ele>996.0</ele><time>2026-04-13T21:43:03.549Z</time></trkpt><trkpt lat="9.9707164" lon="-84.1408327"><ele>999.1999999999999</ele><time>2026-04-13T21:43:04.55Z</time></trkpt><trkpt lat="9.9706734" lon="-84.1407325"><ele>1002.3999999999999</ele><time>2026-04-13T21:43:05.551Z</time></trkpt><trkpt lat="9.9706305" lon="-84.14064"><ele>1005.6</ele><time>2026-04-13T21:43:06.55Z</time></trkpt><trkpt lat="9.9705956" lon="-84.1405585"><ele>1008.8</ele><time>2026-04-13T21:43:07.55Z</time></trkpt><trkpt lat="9.9705628" lon="-84.1404844"><ele>1012.0</ele><time>2026-04-13T21:43:08.55Z</time></trkpt><trkpt lat="9.9705229" lon="-84.1404081"><ele>1011.9999999999999</ele><time>2026-04-13T21:43:09.55Z</time></trkpt><trkpt lat="9.9704908" lon="-84.1403463"><ele>1012.0</ele><time>2026-04-13T21:43:10.549Z</time></trkpt><trkpt lat="9.9704611" lon="-84.1402823"><ele>1012.0</ele><time>2026-04-13T21:43:11.551Z</time></trkpt><trkpt lat="9.9704239" lon="-84.1401995"><ele>1012.0</ele><time>2026-04-13T21:43:13.55Z</time></trkpt><trkpt lat="9.9703927" lon="-84.140129"><ele>1011.9999999999999</ele><time>2026-04-13T21:43:15.55Z</time></trkpt><trkpt lat="9.970363" lon="-84.1400655"><ele>1012.0</ele><time>2026-04-13T21:43:17.55Z</time></trkpt><trkpt lat="9.9703237" lon="-84.1399939"><ele>1012.0</ele><time>2026-04-13T21:43:20.55Z</time></trkpt><trkpt lat="9.9702839" lon="-84.1399279"><ele>1012.0</ele><time>2026-04-13T21:43:23.55Z</time></trkpt><trkpt lat="9.9702449" lon="-84.1398678"><ele>1012.0</ele><time>2026-04-13T21:43:27.549Z</time></trkpt><trkpt lat="9.9701913" lon="-84.1397674"><ele>1012.0</ele><time>2026-04-13T21:43:29.55Z</time></trkpt><trkpt lat="9.9701322" lon="-84.1396604"><ele>1012.0</ele><time>2026-04-13T21:43:31.55Z</time></trkpt><trkpt lat="9.9700741" lon="-84.139557"><ele>1013.4000000000001</ele><time>2026-04-13T21:43:33.549Z</time></trkpt><trkpt lat="9.9700239" lon="-84.1394627"><ele>1014.8000000000001</ele><time>2026-04-13T21:43:35.549Z</time></trkpt><trkpt lat="9.9699601" lon="-84.1393511"><ele>1016.2</ele><time>2026-04-13T21:43:37.549Z</time></trkpt><trkpt lat="9.9699256" lon="-84.1392787"><ele>1017.6</ele><time>2026-04-13T21:43:38.55Z</time></trkpt><trkpt lat="9.9698861" lon="-84.1392014"><ele>1019.0</ele><time>2026-04-13T21:43:39.55Z</time></trkpt><trkpt lat="9.9698444" lon="-84.1391234"><ele>1019.0000000000001</ele><time>2026-04-13T21:43:40.551Z</time></trkpt><trkpt lat="9.9698079" lon="-84.1390523"><ele>1019.0</ele><time>2026-04-13T21:43:41.55Z</time></trkpt><trkpt lat="9.9697713" lon="-84.1389883"><ele>1019.0</ele><time>2026-04-13T21:43:42.549Z</time></trkpt><trkpt lat="9.9697346" lon="-84.1389166"><ele>1019.0</ele><time>2026-04-13T21:43:43.55Z</time></trkpt><trkpt lat="9.9697001" lon="-84.1388518"><ele>1019.0000000000001</ele><time>2026-04-13T21:43:44.55Z</time></trkpt><trkpt lat="9.9696643" lon="-84.1387861"><ele>1019.0</ele><time>2026-04-13T21:43:45.55Z</time></trkpt><trkpt lat="9.9696298" lon="-84.1387163"><ele>1019.6666666666667</ele><time>2026-04-13T21:43:46.55Z</time></trkpt><trkpt lat="9.969595" lon="-84.138656"><ele>1020.3333333333334</ele><time>2026-04-13T21:43:47.549Z</time></trkpt><trkpt lat="9.9695617" lon="-84.1386001"><ele>1021.0</ele><time>2026-04-13T21:43:48.55Z</time></trkpt><trkpt lat="9.9695043" lon="-84.1385114"><ele>1021.6666666666667</ele><time>2026-04-13T21:43:50.55Z</time></trkpt><trkpt lat="9.9694432" lon="-84.1384279"><ele>1022.3333333333334</ele><time>2026-04-13T21:43:53.549Z</time></trkpt><trkpt lat="9.9693893" lon="-84.1383344"><ele>1023.0</ele><time>2026-04-13T21:43:55.55Z</time></trkpt><trkpt lat="9.969354" lon="-84.1382584"><ele>1023.3333333333334</ele><time>2026-04-13T21:43:57.55Z</time></trkpt><trkpt lat="9.9693177" lon="-84.1381729"><ele>1023.6666666666667</ele><time>2026-04-13T21:43:59.549Z</time></trkpt><trkpt lat="9.9692833" lon="-84.1381012"><ele>1024.0</ele><time>2026-04-13T21:44:01.55Z</time></trkpt><trkpt lat="9.9692306" lon="-84.1380109"><ele>1024.3333333333335</ele><time>2026-04-13T21:44:03.55Z</time></trkpt><trkpt lat="9.9691927" lon="-84.1379361"><ele>1024.6666666666667</ele><time>2026-04-13T21:44:04.55Z</time></trkpt><trkpt lat="9.9691617" lon="-84.1378677"><ele>1025.0</ele><time>2026-04-13T21:44:05.549Z</time></trkpt><trkpt lat="9.9691267" lon="-84.1377981"><ele>1024.6666666666667</ele><time>2026-04-13T21:44:06.549Z</time></trkpt><trkpt lat="9.9690941" lon="-84.1377369"><ele>1024.3333333333335</ele><time>2026-04-13T21:44:07.55Z</time></trkpt><trkpt lat="9.969041" lon="-84.1376467"><ele>1024.0</ele><time>2026-04-13T21:44:09.551Z</time></trkpt><trkpt lat="9.9690117" lon="-84.1375882"><ele>1023.6666666666667</ele><time>2026-04-13T21:44:10.55Z</time></trkpt><trkpt lat="9.9689756" lon="-84.1375216"><ele>1023.3333333333334</ele><time>2026-04-13T21:44:11.549Z</time></trkpt><trkpt lat="9.9689355" lon="-84.1374485"><ele>1023.0</ele><time>2026-04-13T21:44:12.55Z</time></trkpt><trkpt lat="9.9688959" lon="-84.1373758"><ele>1023.0</ele><time>2026-04-13T21:44:13.549Z</time></trkpt><trkpt lat="9.9688625" lon="-84.1373088"><ele>1023.0</ele><time>2026-04-13T21:44:14.549Z</time></trkpt><trkpt lat="9.9688255" lon="-84.1372397"><ele>1023.0</ele><time>2026-04-13T21:44:15.549Z</time></trkpt><trkpt lat="9.9687872" lon="-84.137174"><ele>1023.0</ele><time>2026-04-13T21:44:16.55Z</time></trkpt><trkpt lat="9.968757" lon="-84.1371025"><ele>1023.0</ele><time>2026-04-13T21:44:17.55Z</time></trkpt><trkpt lat="9.9687189" lon="-84.1370356"><ele>1023.0</ele><time>2026-04-13T21:44:18.55Z</time></trkpt><trkpt lat="9.9686809" lon="-84.1369693"><ele>1023.0</ele><time>2026-04-13T21:44:19.55Z</time></trkpt><trkpt lat="9.9686398" lon="-84.1368937"><ele>1023.0</ele><time>2026-04-13T21:44:21.549Z</time></trkpt><trkpt lat="9.9685985" lon="-84.1368148"><ele>1023.0</ele><time>2026-04-13T21:44:24.55Z</time></trkpt><trkpt lat="9.9685551" lon="-84.1367534"><ele>1023.0</ele><time>2026-04-13T21:44:27.548Z</time></trkpt><trkpt lat="9.9684962" lon="-84.1366556"><ele>1023.0</ele><time>2026-04-13T21:44:30.549Z</time></trkpt><trkpt lat="9.9684502" lon="-84.1365774"><ele>1022.8</ele><time>2026-04-13T21:44:33.55Z</time></trkpt><trkpt lat="9.9684123" lon="-84.1364896"><ele>1022.5999999999999</ele><time>2026-04-13T21:44:35.549Z</time></trkpt><trkpt lat="9.9683711" lon="-84.1363979"><ele>1022.4000000000001</ele><time>2026-04-13T21:44:37.55Z</time></trkpt><trkpt lat="9.9683094" lon="-84.1362794"><ele>1022.2</ele><time>2026-04-13T21:44:39.55Z</time></trkpt><trkpt lat="9.9682728" lon="-84.1362178"><ele>1022.0</ele><time>2026-04-13T21:44:40.55Z</time></trkpt><trkpt lat="9.9682394" lon="-84.1361613"><ele>1022.0000000000001</ele><time>2026-04-13T21:44:41.551Z</time></trkpt><trkpt lat="9.9681991" lon="-84.1360735"><ele>1022.0</ele><time>2026-04-13T21:44:43.55Z</time></trkpt><trkpt lat="9.9681567" lon="-84.1359975"><ele>1022.0</ele><time>2026-04-13T21:44:45.55Z</time></trkpt><trkpt lat="9.9681169" lon="-84.1359273"><ele>1022.0</ele><time>2026-04-13T21:44:47.55Z</time></trkpt><trkpt lat="9.9680555" lon="-84.1358184"><ele>1022.0000000000001</ele><time>2026-04-13T21:44:49.549Z</time></trkpt><trkpt lat="9.9680284" lon="-84.1357605"><ele>1022.0</ele><time>2026-04-13T21:44:50.548Z</time></trkpt><trkpt lat="9.9679674" lon="-84.1356717"><ele>1022.3333333333334</ele><time>2026-04-13T21:44:52.549Z</time></trkpt><trkpt lat="9.967927" lon="-84.1356186"><ele>1022.6666666666667</ele><time>2026-04-13T21:44:54.551Z</time></trkpt><trkpt lat="9.9678974" lon="-84.1355603"><ele>1023.0</ele><time>2026-04-13T21:44:56.549Z</time></trkpt><trkpt lat="9.9678535" lon="-84.1354735"><ele>1023.3333333333333</ele><time>2026-04-13T21:44:58.55Z</time></trkpt><trkpt lat="9.9678199" lon="-84.1354015"><ele>1023.6666666666666</ele><time>2026-04-13T21:44:59.55Z</time></trkpt><trkpt lat="9.9677834" lon="-84.1353249"><ele>1024.0</ele><time>2026-04-13T21:45:00.549Z</time></trkpt><trkpt lat="9.9677418" lon="-84.1352548"><ele>1024.0</ele><time>2026-04-13T21:45:01.549Z</time></trkpt><trkpt lat="9.9676949" lon="-84.1351927"><ele>1023.9999999999999</ele><time>2026-04-13T21:45:02.55Z</time></trkpt><trkpt lat="9.9676583" lon="-84.1351361"><ele>1024.0</ele><time>2026-04-13T21:45:03.55Z</time></trkpt><trkpt lat="9.9676361" lon="-84.1350758"><ele>1024.0</ele><time>2026-04-13T21:45:04.549Z</time></trkpt><trkpt lat="9.9676027" lon="-84.1350146"><ele>1023.9999999999999</ele><time>2026-04-13T21:45:05.55Z</time></trkpt><trkpt lat="9.9675741" lon="-84.1349558"><ele>1024.0</ele><time>2026-04-13T21:45:06.551Z</time></trkpt><trkpt lat="9.9675251" lon="-84.1348758"><ele>1024.0</ele><time>2026-04-13T21:45:08.549Z</time></trkpt><trkpt lat="9.967489" lon="-84.134806"><ele>1018.4999999999999</ele><time>2026-04-13T21:45:10.549Z</time></trkpt><trkpt lat="9.9674513" lon="-84.1347333"><ele>1013.0</ele><time>2026-04-13T21:45:12.549Z</time></trkpt><trkpt lat="9.9673997" lon="-84.1346296"><ele>1007.5</ele><time>2026-04-13T21:45:14.549Z</time></trkpt><trkpt lat="9.9673656" lon="-84.1345698"><ele>1002.0</ele><time>2026-04-13T21:45:15.55Z</time></trkpt><trkpt lat="9.9673305" lon="-84.1345028"><ele>996.4999999999999</ele><time>2026-04-13T21:45:16.549Z</time></trkpt><trkpt lat="9.9672927" lon="-84.1344337"><ele>991.0</ele><time>2026-04-13T21:45:17.549Z</time></trkpt><trkpt lat="9.9672559" lon="-84.134369"><ele>990.9999999999999</ele><time>2026-04-13T21:45:18.55Z</time></trkpt><trkpt lat="9.9672216" lon="-84.1343004"><ele>991.0</ele><time>2026-04-13T21:45:19.549Z</time></trkpt><trkpt lat="9.9671911" lon="-84.1342413"><ele>991.0</ele><time>2026-04-13T21:45:20.548Z</time></trkpt><trkpt lat="9.9671533" lon="-84.1341736"><ele>991.0</ele><time>2026-04-13T21:45:21.55Z</time></trkpt><trkpt lat="9.967116" lon="-84.1341077"><ele>990.9999999999999</ele><time>2026-04-13T21:45:22.55Z</time></trkpt><trkpt lat="9.9670807" lon="-84.1340493"><ele>991.0</ele><time>2026-04-13T21:45:23.55Z</time></trkpt><trkpt lat="9.967039" lon="-84.1339678"><ele>989.7142857142858</ele><time>2026-04-13T21:45:24.548Z</time></trkpt><trkpt lat="9.9670042" lon="-84.1339024"><ele>988.4285714285714</ele><time>2026-04-13T21:45:25.549Z</time></trkpt><trkpt lat="9.9669767" lon="-84.133842"><ele>987.1428571428571</ele><time>2026-04-13T21:45:26.55Z</time></trkpt><trkpt lat="9.9669292" lon="-84.133784"><ele>985.8571428571429</ele><time>2026-04-13T21:45:27.549Z</time></trkpt><trkpt lat="9.9668935" lon="-84.1337171"><ele>984.5714285714284</ele><time>2026-04-13T21:45:28.549Z</time></trkpt><trkpt lat="9.9668603" lon="-84.133654"><ele>983.2857142857142</ele><time>2026-04-13T21:45:29.551Z</time></trkpt><trkpt lat="9.9668226" lon="-84.1335862"><ele>982.0</ele><time>2026-04-13T21:45:30.549Z</time></trkpt><trkpt lat="9.9667912" lon="-84.1335258"><ele>982.0</ele><time>2026-04-13T21:45:31.55Z</time></trkpt><trkpt lat="9.9667358" lon="-84.1334302"><ele>982.0</ele><time>2026-04-13T21:45:33.55Z</time></trkpt><trkpt lat="9.96669" lon="-84.1333534"><ele>982.0</ele><time>2026-04-13T21:45:35.551Z</time></trkpt><trkpt lat="9.9666413" lon="-84.1332745"><ele>982.0</ele><time>2026-04-13T21:45:37.549Z</time></trkpt><trkpt lat="9.9665956" lon="-84.1331896"><ele>982.0</ele><time>2026-04-13T21:45:39.548Z</time></trkpt><trkpt lat="9.9665632" lon="-84.1331261"><ele>983.9999999999999</ele><time>2026-04-13T21:45:41.55Z</time></trkpt><trkpt lat="9.9665047" lon="-84.1330253"><ele>986.0</ele><time>2026-04-13T21:45:43.549Z</time></trkpt><trkpt lat="9.9664759" lon="-84.1329633"><ele>988.0</ele><time>2026-04-13T21:45:44.55Z</time></trkpt><trkpt lat="9.9664347" lon="-84.1328819"><ele>990.0</ele><time>2026-04-13T21:45:45.55Z</time></trkpt><trkpt lat="9.9663937" lon="-84.1328039"><ele>991.9999999999999</ele><time>2026-04-13T21:45:46.55Z</time></trkpt><trkpt lat="9.9663583" lon="-84.1327226"><ele>994.0</ele><time>2026-04-13T21:45:47.55Z</time></trkpt><trkpt lat="9.9663155" lon="-84.1326464"><ele>993.9999999999999</ele><time>2026-04-13T21:45:48.55Z</time></trkpt><trkpt lat="9.966279" lon="-84.1325755"><ele>994.0</ele><time>2026-04-13T21:45:49.55Z</time></trkpt><trkpt lat="9.9662369" lon="-84.1324962"><ele>994.0</ele><time>2026-04-13T21:45:50.55Z</time></trkpt><trkpt lat="9.966199" lon="-84.1324199"><ele>994.0</ele><time>2026-04-13T21:45:51.549Z</time></trkpt><trkpt lat="9.9661669" lon="-84.1323564"><ele>993.9999999999999</ele><time>2026-04-13T21:45:52.551Z</time></trkpt><trkpt lat="9.9661247" lon="-84.1322728"><ele>994.0</ele><time>2026-04-13T21:45:54.549Z</time></trkpt><trkpt lat="9.9660923" lon="-84.1322099"><ele>992.0</ele><time>2026-04-13T21:45:56.549Z</time></trkpt><trkpt lat="9.9660598" lon="-84.1321432"><ele>990.0000000000001</ele><time>2026-04-13T21:45:58.549Z</time></trkpt><trkpt lat="9.9660007" lon="-84.1320597"><ele>988.0000000000001</ele><time>2026-04-13T21:46:00.548Z</time></trkpt><trkpt lat="9.9659412" lon="-84.1319613"><ele>986.0</ele><time>2026-04-13T21:46:02.55Z</time></trkpt><trkpt lat="9.9658907" lon="-84.1318546"><ele>984.0</ele><time>2026-04-13T21:46:04.549Z</time></trkpt><trkpt lat="9.9658496" lon="-84.1317762"><ele>985.8333333333334</ele><time>2026-04-13T21:46:06.549Z</time></trkpt><trkpt lat="9.9658158" lon="-84.131708"><ele>987.6666666666667</ele><time>2026-04-13T21:46:10.548Z</time></trkpt><trkpt lat="9.9657689" lon="-84.1316384"><ele>989.5</ele><time>2026-04-13T21:46:12.55Z</time></trkpt><trkpt lat="9.9657102" lon="-84.1315264"><ele>991.3333333333334</ele><time>2026-04-13T21:46:14.549Z</time></trkpt><trkpt lat="9.9656816" lon="-84.1314638"><ele>993.1666666666667</ele><time>2026-04-13T21:46:15.549Z</time></trkpt><trkpt lat="9.9656398" lon="-84.1314029"><ele>995.0</ele><time>2026-04-13T21:46:16.548Z</time></trkpt><trkpt lat="9.9655978" lon="-84.1313486"><ele>995.0</ele><time>2026-04-13T21:46:17.548Z</time></trkpt><trkpt lat="9.9655524" lon="-84.1312599"><ele>995.0</ele><time>2026-04-13T21:46:19.549Z</time></trkpt><trkpt lat="9.9655163" lon="-84.1311996"><ele>995.0</ele><time>2026-04-13T21:46:21.549Z</time></trkpt><trkpt lat="9.9654733" lon="-84.1311096"><ele>995.0</ele><time>2026-04-13T21:46:24.548Z</time></trkpt><trkpt lat="9.9654212" lon="-84.1309931"><ele>995.0</ele><time>2026-04-13T21:46:26.549Z</time></trkpt><trkpt lat="9.9653891" lon="-84.1309355"><ele>995.0</ele><time>2026-04-13T21:46:27.55Z</time></trkpt><trkpt lat="9.9653557" lon="-84.130875"><ele>995.0</ele><time>2026-04-13T21:46:28.549Z</time></trkpt><trkpt lat="9.9653246" lon="-84.1308102"><ele>995.0</ele><time>2026-04-13T21:46:29.551Z</time></trkpt><trkpt lat="9.9652815" lon="-84.1307602"><ele>995.0</ele><time>2026-04-13T21:46:30.549Z</time></trkpt><trkpt lat="9.9652513" lon="-84.1307039"><ele>995.0</ele><time>2026-04-13T21:46:31.548Z</time></trkpt><trkpt lat="9.9652037" lon="-84.1306048"><ele>995.0</ele><time>2026-04-13T21:46:33.548Z</time></trkpt><trkpt lat="9.9651739" lon="-84.1305388"><ele>995.0</ele><time>2026-04-13T21:46:35.55Z</time></trkpt><trkpt lat="9.9651309" lon="-84.1304711"><ele>994.5000000000001</ele><time>2026-04-13T21:46:37.549Z</time></trkpt><trkpt lat="9.9650921" lon="-84.1303948"><ele>994.0</ele><time>2026-04-13T21:46:39.549Z</time></trkpt><trkpt lat="9.9650518" lon="-84.1303249"><ele>993.5</ele><time>2026-04-13T21:46:41.549Z</time></trkpt><trkpt lat="9.9650027" lon="-84.1302312"><ele>993.0</ele><time>2026-04-13T21:46:43.549Z</time></trkpt><trkpt lat="9.9649564" lon="-84.1301561"><ele>992.5000000000001</ele><time>2026-04-13T21:46:45.548Z</time></trkpt><trkpt lat="9.9649201" lon="-84.1300922"><ele>992.0</ele><time>2026-04-13T21:46:47.549Z</time></trkpt><trkpt lat="9.9648706" lon="-84.130019"><ele>996.5000000000001</ele><time>2026-04-13T21:46:50.55Z</time></trkpt><trkpt lat="9.9648295" lon="-84.1299559"><ele>1001.0</ele><time>2026-04-13T21:46:53.548Z</time></trkpt><trkpt lat="9.9647797" lon="-84.1298771"><ele>1005.5</ele><time>2026-04-13T21:46:57.549Z</time></trkpt><trkpt lat="9.9647333" lon="-84.1297955"><ele>1010.0</ele><time>2026-04-13T21:47:00.549Z</time></trkpt><trkpt lat="9.9646941" lon="-84.1297284"><ele>1014.5000000000001</ele><time>2026-04-13T21:47:02.549Z</time></trkpt><trkpt lat="9.9646544" lon="-84.129652"><ele>1019.0</ele><time>2026-04-13T21:47:04.548Z</time></trkpt><trkpt lat="9.964613" lon="-84.1295821"><ele>1019.8000000000001</ele><time>2026-04-13T21:47:06.55Z</time></trkpt><trkpt lat="9.964571" lon="-84.129516"><ele>1020.6000000000001</ele><time>2026-04-13T21:47:08.549Z</time></trkpt><trkpt lat="9.9645224" lon="-84.1294317"><ele>1021.4</ele><time>2026-04-13T21:47:10.549Z</time></trkpt><trkpt lat="9.9644725" lon="-84.1293401"><ele>1022.2</ele><time>2026-04-13T21:47:12.549Z</time></trkpt><trkpt lat="9.9644276" lon="-84.1292476"><ele>1023.0</ele><time>2026-04-13T21:47:14.549Z</time></trkpt><trkpt lat="9.9643801" lon="-84.1291521"><ele>1023.0</ele><time>2026-04-13T21:47:16.548Z</time></trkpt><trkpt lat="9.9643455" lon="-84.1290846"><ele>1023.0</ele><time>2026-04-13T21:47:17.55Z</time></trkpt><trkpt lat="9.96431" lon="-84.1290178"><ele>1023.0</ele><time>2026-04-13T21:47:18.549Z</time></trkpt><trkpt lat="9.9642738" lon="-84.1289526"><ele>1023.0</ele><time>2026-04-13T21:47:19.548Z</time></trkpt><trkpt lat="9.9642417" lon="-84.1288948"><ele>1023.0</ele><time>2026-04-13T21:47:20.548Z</time></trkpt><trkpt lat="9.9642068" lon="-84.1288325"><ele>1023.0</ele><time>2026-04-13T21:47:21.549Z</time></trkpt><trkpt lat="9.9641518" lon="-84.1287345"><ele>1024.8333333333333</ele><time>2026-04-13T21:47:23.549Z</time></trkpt><trkpt lat="9.9641137" lon="-84.1286635"><ele>1026.6666666666667</ele><time>2026-04-13T21:47:25.549Z</time></trkpt><trkpt lat="9.9640737" lon="-84.1285854"><ele>1028.5</ele><time>2026-04-13T21:47:27.549Z</time></trkpt><trkpt lat="9.9640252" lon="-84.1285246"><ele>1030.3333333333335</ele><time>2026-04-13T21:47:29.548Z</time></trkpt><trkpt lat="9.9639897" lon="-84.1284596"><ele>1032.1666666666667</ele><time>2026-04-13T21:47:31.549Z</time></trkpt><trkpt lat="9.9639601" lon="-84.1283996"><ele>1034.0</ele><time>2026-04-13T21:47:33.548Z</time></trkpt><trkpt lat="9.9639267" lon="-84.1283212"><ele>1034.0</ele><time>2026-04-13T21:47:36.549Z</time></trkpt><trkpt lat="9.9638894" lon="-84.128243"><ele>1034.0</ele><time>2026-04-13T21:47:39.549Z</time></trkpt><trkpt lat="9.9638517" lon="-84.1281687"><ele>1034.0</ele><time>2026-04-13T21:47:42.55Z</time></trkpt><trkpt lat="9.9638034" lon="-84.1280895"><ele>1034.0</ele><time>2026-04-13T21:47:45.548Z</time></trkpt><trkpt lat="9.9637589" lon="-84.1280134"><ele>1034.0</ele><time>2026-04-13T21:47:48.549Z</time></trkpt><trkpt lat="9.9637135" lon="-84.1279308"><ele>1034.0</ele><time>2026-04-13T21:47:51.549Z</time></trkpt><trkpt lat="9.9636718" lon="-84.1278526"><ele>1033.6666666666667</ele><time>2026-04-13T21:47:54.548Z</time></trkpt><trkpt lat="9.963627" lon="-84.1277752"><ele>1033.3333333333335</ele><time>2026-04-13T21:47:57.549Z</time></trkpt><trkpt lat="9.9635821" lon="-84.1277024"><ele>1033.0</ele><time>2026-04-13T21:48:00.549Z</time></trkpt><trkpt lat="9.9635474" lon="-84.1276365"><ele>1032.6666666666667</ele><time>2026-04-13T21:48:03.549Z</time></trkpt><trkpt lat="9.9635063" lon="-84.1275809"><ele>1032.3333333333333</ele><time>2026-04-13T21:48:07.548Z</time></trkpt><trkpt lat="9.9634636" lon="-84.1275092"><ele>1032.0</ele><time>2026-04-13T21:48:12.549Z</time></trkpt><trkpt lat="9.9634353" lon="-84.1274434"><ele>1031.1666666666667</ele><time>2026-04-13T21:48:15.549Z</time></trkpt><trkpt lat="9.9634103" lon="-84.1273759"><ele>1030.3333333333333</ele><time>2026-04-13T21:48:18.549Z</time></trkpt><trkpt lat="9.96338" lon="-84.1273062"><ele>1029.5</ele><time>2026-04-13T21:48:21.548Z</time></trkpt><trkpt lat="9.96335" lon="-84.1272475"><ele>1028.6666666666665</ele><time>2026-04-13T21:48:26.548Z</time></trkpt><trkpt lat="9.9633107" lon="-84.1271873"><ele>1027.8333333333333</ele><time>2026-04-13T21:48:31.548Z</time></trkpt><trkpt lat="9.9632569" lon="-84.1270908"><ele>1027.0</ele><time>2026-04-13T21:48:34.549Z</time></trkpt><trkpt lat="9.9631981" lon="-84.1270033"><ele>1029.4</ele><time>2026-04-13T21:48:36.549Z</time></trkpt><trkpt lat="9.9631397" lon="-84.1268879"><ele>1031.8000000000002</ele><time>2026-04-13T21:48:38.548Z</time></trkpt><trkpt lat="9.9630772" lon="-84.1267779"><ele>1034.2</ele><time>2026-04-13T21:48:40.549Z</time></trkpt><trkpt lat="9.9630414" lon="-84.126713"><ele>1036.6000000000001</ele><time>2026-04-13T21:48:41.549Z</time></trkpt><trkpt lat="9.9630064" lon="-84.1266474"><ele>1039.0</ele><time>2026-04-13T21:48:42.548Z</time></trkpt><trkpt lat="9.9629769" lon="-84.1265763"><ele>1038.8</ele><time>2026-04-13T21:48:43.549Z</time></trkpt><trkpt lat="9.9629241" lon="-84.1264765"><ele>1038.6000000000001</ele><time>2026-04-13T21:48:45.548Z</time></trkpt><trkpt lat="9.9628775" lon="-84.1263873"><ele>1038.4</ele><time>2026-04-13T21:48:47.549Z</time></trkpt><trkpt lat="9.9628388" lon="-84.1263129"><ele>1038.2</ele><time>2026-04-13T21:48:49.549Z</time></trkpt><trkpt lat="9.962805" lon="-84.1262393"><ele>1038.0</ele><time>2026-04-13T21:48:53.549Z</time></trkpt><trkpt lat="9.962756" lon="-84.1261555"><ele>1038.0</ele><time>2026-04-13T21:48:56.549Z</time></trkpt><trkpt lat="9.9627225" lon="-84.1261002"><ele>1038.0</ele><time>2026-04-13T21:48:59.55Z</time></trkpt><trkpt lat="9.9626898" lon="-84.1260408"><ele>1038.0</ele><time>2026-04-13T21:49:02.55Z</time></trkpt><trkpt lat="9.9626504" lon="-84.1259713"><ele>1038.0</ele><time>2026-04-13T21:49:04.549Z</time></trkpt><trkpt lat="9.9626145" lon="-84.1258985"><ele>1038.0</ele><time>2026-04-13T21:49:06.548Z</time></trkpt><trkpt lat="9.9625748" lon="-84.1258161"><ele>1038.0</ele><time>2026-04-13T21:49:08.549Z</time></trkpt><trkpt lat="9.9625307" lon="-84.125739"><ele>1038.6666666666667</ele><time>2026-04-13T21:49:10.548Z</time></trkpt><trkpt lat="9.9624805" lon="-84.1256498"><ele>1039.3333333333333</ele><time>2026-04-13T21:49:12.549Z</time></trkpt><trkpt lat="9.9624311" lon="-84.125585"><ele>1040.0</ele><time>2026-04-13T21:49:14.549Z</time></trkpt><trkpt lat="9.9623998" lon="-84.1255254"><ele>1040.6666666666665</ele><time>2026-04-13T21:49:16.548Z</time></trkpt><trkpt lat="9.962368" lon="-84.1254598"><ele>1041.3333333333333</ele><time>2026-04-13T21:49:19.549Z</time></trkpt><trkpt lat="9.962336" lon="-84.1253992"><ele>1042.0</ele><time>2026-04-13T21:49:22.549Z</time></trkpt><trkpt lat="9.962291" lon="-84.1253175"><ele>1042.0</ele><time>2026-04-13T21:49:25.55Z</time></trkpt><trkpt lat="9.9622573" lon="-84.1252562"><ele>1042.0</ele><time>2026-04-13T21:49:27.549Z</time></trkpt><trkpt lat="9.9622138" lon="-84.125177"><ele>1042.0</ele><time>2026-04-13T21:49:30.55Z</time></trkpt><trkpt lat="9.962178" lon="-84.1251109"><ele>1042.0</ele><time>2026-04-13T21:49:32.548Z</time></trkpt><trkpt lat="9.9621452" lon="-84.1250502"><ele>1042.0</ele><time>2026-04-13T21:49:34.549Z</time></trkpt><trkpt lat="9.9621126" lon="-84.1249862"><ele>1042.0</ele><time>2026-04-13T21:49:36.549Z</time></trkpt><trkpt lat="9.9620771" lon="-84.1249242"><ele>1042.0</ele><time>2026-04-13T21:49:38.548Z</time></trkpt><trkpt lat="9.962042" lon="-84.1248605"><ele>1042.3333333333333</ele><time>2026-04-13T21:49:40.549Z</time></trkpt><trkpt lat="9.9620112" lon="-84.1248006"><ele>1042.6666666666665</ele><time>2026-04-13T21:49:42.55Z</time></trkpt><trkpt lat="9.9619647" lon="-84.1247129"><ele>1043.0</ele><time>2026-04-13T21:49:45.548Z</time></trkpt><trkpt lat="9.9619262" lon="-84.1246419"><ele>1043.3333333333333</ele><time>2026-04-13T21:49:47.549Z</time></trkpt><trkpt lat="9.9618915" lon="-84.1245805"><ele>1043.6666666666667</ele><time>2026-04-13T21:49:49.548Z</time></trkpt><trkpt lat="9.9618565" lon="-84.1245168"><ele>1044.0</ele><time>2026-04-13T21:49:52.548Z</time></trkpt><trkpt lat="9.9618274" lon="-84.1244496"><ele>1044.0</ele><time>2026-04-13T21:49:57.548Z</time></trkpt><trkpt lat="9.9617944" lon="-84.1243898"><ele>1044.0</ele><time>2026-04-13T21:50:00.549Z</time></trkpt><trkpt lat="9.9617564" lon="-84.1243137"><ele>1044.0</ele><time>2026-04-13T21:50:04.549Z</time></trkpt><trkpt lat="9.9617076" lon="-84.12423"><ele>1044.0</ele><time>2026-04-13T21:50:06.548Z</time></trkpt><trkpt lat="9.9616788" lon="-84.1241677"><ele>1044.0</ele><time>2026-04-13T21:50:07.548Z</time></trkpt><trkpt lat="9.9616434" lon="-84.1241025"><ele>1044.0</ele><time>2026-04-13T21:50:08.549Z</time></trkpt><trkpt lat="9.9616119" lon="-84.1240444"><ele>1044.1666666666667</ele><time>2026-04-13T21:50:09.549Z</time></trkpt><trkpt lat="9.9615796" lon="-84.1239889"><ele>1044.3333333333333</ele><time>2026-04-13T21:50:10.549Z</time></trkpt><trkpt lat="9.9615464" lon="-84.1239247"><ele>1044.5</ele><time>2026-04-13T21:50:11.549Z</time></trkpt><trkpt lat="9.9614913" lon="-84.1238254"><ele>1044.6666666666665</ele><time>2026-04-13T21:50:13.549Z</time></trkpt><trkpt lat="9.9614374" lon="-84.1237333"><ele>1044.8333333333333</ele><time>2026-04-13T21:50:15.549Z</time></trkpt><trkpt lat="9.9613945" lon="-84.1236518"><ele>1045.0</ele><time>2026-04-13T21:50:17.549Z</time></trkpt><trkpt lat="9.9613592" lon="-84.1235906"><ele>1045.0</ele><time>2026-04-13T21:50:19.548Z</time></trkpt><trkpt lat="9.9613124" lon="-84.1235225"><ele>1045.0</ele><time>2026-04-13T21:50:22.547Z</time></trkpt><trkpt lat="9.9612664" lon="-84.1234426"><ele>1045.0</ele><time>2026-04-13T21:50:24.549Z</time></trkpt><trkpt lat="9.9612142" lon="-84.1233588"><ele>1045.0</ele><time>2026-04-13T21:50:26.548Z</time></trkpt><trkpt lat="9.9611579" lon="-84.1232464"><ele>1045.0</ele><time>2026-04-13T21:50:28.549Z</time></trkpt><trkpt lat="9.9611303" lon="-84.1231858"><ele>1044.857142857143</ele><time>2026-04-13T21:50:29.548Z</time></trkpt><trkpt lat="9.9610991" lon="-84.1231211"><ele>1044.7142857142856</ele><time>2026-04-13T21:50:30.55Z</time></trkpt><trkpt lat="9.9610633" lon="-84.1230582"><ele>1044.5714285714284</ele><time>2026-04-13T21:50:31.549Z</time></trkpt><trkpt lat="9.9610294" lon="-84.1229902"><ele>1044.4285714285713</ele><time>2026-04-13T21:50:32.548Z</time></trkpt><trkpt lat="9.9609933" lon="-84.1229228"><ele>1044.2857142857142</ele><time>2026-04-13T21:50:33.547Z</time></trkpt><trkpt lat="9.9609578" lon="-84.1228582"><ele>1044.142857142857</ele><time>2026-04-13T21:50:34.548Z</time></trkpt><trkpt lat="9.960927" lon="-84.1228001"><ele>1044.0</ele><time>2026-04-13T21:50:35.549Z</time></trkpt><trkpt lat="9.9608962" lon="-84.1227427"><ele>1044.2</ele><time>2026-04-13T21:50:36.548Z</time></trkpt><trkpt lat="9.9608604" lon="-84.1226786"><ele>1044.4</ele><time>2026-04-13T21:50:37.549Z</time></trkpt><trkpt lat="9.9608229" lon="-84.1226098"><ele>1044.6</ele><time>2026-04-13T21:50:38.548Z</time></trkpt><trkpt lat="9.9607897" lon="-84.1225502"><ele>1044.8</ele><time>2026-04-13T21:50:39.548Z</time></trkpt><trkpt lat="9.9607278" lon="-84.1224453"><ele>1045.0</ele><time>2026-04-13T21:50:41.548Z</time></trkpt><trkpt lat="9.9606731" lon="-84.1223461"><ele>1044.6</ele><time>2026-04-13T21:50:43.547Z</time></trkpt><trkpt lat="9.9606277" lon="-84.1222496"><ele>1044.2</ele><time>2026-04-13T21:50:45.549Z</time></trkpt><trkpt lat="9.960569" lon="-84.1221574"><ele>1043.8</ele><time>2026-04-13T21:50:47.549Z</time></trkpt><trkpt lat="9.9605178" lon="-84.1220608"><ele>1043.4</ele><time>2026-04-13T21:50:49.549Z</time></trkpt><trkpt lat="9.9604593" lon="-84.121967"><ele>1043.0</ele><time>2026-04-13T21:50:51.549Z</time></trkpt><trkpt lat="9.9604217" lon="-84.1219071"><ele>1043.0</ele><time>2026-04-13T21:50:53.548Z</time></trkpt><trkpt lat="9.9603843" lon="-84.1218307"><ele>1043.0</ele><time>2026-04-13T21:50:55.548Z</time></trkpt><trkpt lat="9.9603442" lon="-84.1217507"><ele>1043.0</ele><time>2026-04-13T21:50:57.549Z</time></trkpt><trkpt lat="9.9602962" lon="-84.1216694"><ele>1043.0</ele><time>2026-04-13T21:50:59.549Z</time></trkpt><trkpt lat="9.960245" lon="-84.1215761"><ele>1043.0</ele><time>2026-04-13T21:51:01.547Z</time></trkpt><trkpt lat="9.9601897" lon="-84.1214752"><ele>1043.4</ele><time>2026-04-13T21:51:03.549Z</time></trkpt><trkpt lat="9.9601359" lon="-84.1213768"><ele>1043.8</ele><time>2026-04-13T21:51:05.547Z</time></trkpt><trkpt lat="9.9600837" lon="-84.1212795"><ele>1044.2</ele><time>2026-04-13T21:51:07.548Z</time></trkpt><trkpt lat="9.9600352" lon="-84.121184"><ele>1044.6</ele><time>2026-04-13T21:51:09.549Z</time></trkpt><trkpt lat="9.9599927" lon="-84.1210876"><ele>1045.0</ele><time>2026-04-13T21:51:11.549Z</time></trkpt><trkpt lat="9.9599389" lon="-84.1209961"><ele>1046.2</ele><time>2026-04-13T21:51:13.548Z</time></trkpt><trkpt lat="9.9598922" lon="-84.120915"><ele>1047.4</ele><time>2026-04-13T21:51:15.547Z</time></trkpt><trkpt lat="9.959838" lon="-84.1208112"><ele>1048.6</ele><time>2026-04-13T21:51:17.547Z</time></trkpt><trkpt lat="9.9597972" lon="-84.1207206"><ele>1049.8</ele><time>2026-04-13T21:51:19.548Z</time></trkpt><trkpt lat="9.9597449" lon="-84.1206223"><ele>1051.0</ele><time>2026-04-13T21:51:21.548Z</time></trkpt><trkpt lat="9.959678" lon="-84.120523"><ele>1051.3999999999999</ele><time>2026-04-13T21:51:23.548Z</time></trkpt><trkpt lat="9.9596211" lon="-84.1204253"><ele>1051.8</ele><time>2026-04-13T21:51:25.549Z</time></trkpt><trkpt lat="9.9595777" lon="-84.1203444"><ele>1052.1999999999998</ele><time>2026-04-13T21:51:27.549Z</time></trkpt><trkpt lat="9.9595334" lon="-84.120266"><ele>1052.6</ele><time>2026-04-13T21:51:29.548Z</time></trkpt><trkpt lat="9.9594765" lon="-84.1201587"><ele>1053.0</ele><time>2026-04-13T21:51:31.548Z</time></trkpt><trkpt lat="9.9594392" lon="-84.1200969"><ele>1053.0</ele><time>2026-04-13T21:51:32.548Z</time></trkpt><trkpt lat="9.9594051" lon="-84.1200407"><ele>1053.0</ele><time>2026-04-13T21:51:33.547Z</time></trkpt><trkpt lat="9.9593714" lon="-84.1199841"><ele>1053.0</ele><time>2026-04-13T21:51:34.549Z</time></trkpt><trkpt lat="9.9593144" lon="-84.1198624"><ele>1053.0</ele><time>2026-04-13T21:51:36.547Z</time></trkpt><trkpt lat="9.9592731" lon="-84.1197694"><ele>1053.0</ele><time>2026-04-13T21:51:37.548Z</time></trkpt><trkpt lat="9.9592258" lon="-84.1196783"><ele>1053.8</ele><time>2026-04-13T21:51:38.548Z</time></trkpt><trkpt lat="9.9591693" lon="-84.1195894"><ele>1054.6</ele><time>2026-04-13T21:51:39.548Z</time></trkpt><trkpt lat="9.9591176" lon="-84.119498"><ele>1055.4</ele><time>2026-04-13T21:51:40.549Z</time></trkpt><trkpt lat="9.9590715" lon="-84.1194104"><ele>1056.2</ele><time>2026-04-13T21:51:41.548Z</time></trkpt><trkpt lat="9.959019" lon="-84.1193124"><ele>1057.0</ele><time>2026-04-13T21:51:42.548Z</time></trkpt><trkpt lat="9.9589714" lon="-84.1192304"><ele>1057.0</ele><time>2026-04-13T21:51:43.548Z</time></trkpt><trkpt lat="9.9589299" lon="-84.1191498"><ele>1057.0</ele><time>2026-04-13T21:51:44.548Z</time></trkpt><trkpt lat="9.9588902" lon="-84.119084"><ele>1057.0</ele><time>2026-04-13T21:51:45.548Z</time></trkpt><trkpt lat="9.9588488" lon="-84.1190243"><ele>1057.0</ele><time>2026-04-13T21:51:46.549Z</time></trkpt><trkpt lat="9.9588012" lon="-84.1189367"><ele>1057.0</ele><time>2026-04-13T21:51:48.549Z</time></trkpt><trkpt lat="9.958761" lon="-84.1188459"><ele>1057.0</ele><time>2026-04-13T21:51:50.548Z</time></trkpt><trkpt lat="9.9586945" lon="-84.1187388"><ele>1057.1666666666665</ele><time>2026-04-13T21:51:52.548Z</time></trkpt><trkpt lat="9.9586527" lon="-84.1186742"><ele>1057.3333333333333</ele><time>2026-04-13T21:51:53.549Z</time></trkpt><trkpt lat="9.958609" lon="-84.1185991"><ele>1057.5</ele><time>2026-04-13T21:51:54.548Z</time></trkpt><trkpt lat="9.9585649" lon="-84.1185289"><ele>1057.6666666666667</ele><time>2026-04-13T21:51:55.549Z</time></trkpt><trkpt lat="9.9585298" lon="-84.1184695"><ele>1057.8333333333335</ele><time>2026-04-13T21:51:56.549Z</time></trkpt><trkpt lat="9.9584704" lon="-84.1183674"><ele>1058.0</ele><time>2026-04-13T21:51:58.55Z</time></trkpt><trkpt lat="9.9584235" lon="-84.1182811"><ele>1058.2857142857142</ele><time>2026-04-13T21:52:00.548Z</time></trkpt><trkpt lat="9.9583806" lon="-84.1182308"><ele>1058.5714285714284</ele><time>2026-04-13T21:52:02.548Z</time></trkpt><trkpt lat="9.9583457" lon="-84.1181715"><ele>1058.8571428571427</ele><time>2026-04-13T21:52:06.548Z</time></trkpt><trkpt lat="9.9583063" lon="-84.1181117"><ele>1059.142857142857</ele><time>2026-04-13T21:52:12.548Z</time></trkpt><trkpt lat="9.958257" lon="-84.1180483"><ele>1059.4285714285713</ele><time>2026-04-13T21:52:15.55Z</time></trkpt><trkpt lat="9.9582144" lon="-84.117986"><ele>1059.7142857142856</ele><time>2026-04-13T21:52:18.547Z</time></trkpt><trkpt lat="9.9581695" lon="-84.1179231"><ele>1060.0</ele><time>2026-04-13T21:52:20.548Z</time></trkpt><trkpt lat="9.9581241" lon="-84.1178583"><ele>1060.0</ele><time>2026-04-13T21:52:22.549Z</time></trkpt><trkpt lat="9.9580837" lon="-84.1177996"><ele>1060.0</ele><time>2026-04-13T21:52:24.549Z</time></trkpt><trkpt lat="9.9580444" lon="-84.1177459"><ele>1060.0</ele><time>2026-04-13T21:52:26.548Z</time></trkpt><trkpt lat="9.9579901" lon="-84.1176752"><ele>1060.0</ele><time>2026-04-13T21:52:29.547Z</time></trkpt><trkpt lat="9.957928" lon="-84.1176044"><ele>1060.0</ele><time>2026-04-13T21:52:31.548Z</time></trkpt><trkpt lat="9.957869" lon="-84.1175213"><ele>1060.0</ele><time>2026-04-13T21:52:33.549Z</time></trkpt><trkpt lat="9.9578152" lon="-84.1174488"><ele>1060.3333333333333</ele><time>2026-04-13T21:52:35.547Z</time></trkpt><trkpt lat="9.9577507" lon="-84.1173874"><ele>1060.6666666666665</ele><time>2026-04-13T21:52:37.548Z</time></trkpt><trkpt lat="9.9577046" lon="-84.1173312"><ele>1061.0</ele><time>2026-04-13T21:52:39.549Z</time></trkpt><trkpt lat="9.9576441" lon="-84.1172492"><ele>1061.3333333333333</ele><time>2026-04-13T21:52:42.547Z</time></trkpt><trkpt lat="9.957586" lon="-84.1171924"><ele>1061.6666666666667</ele><time>2026-04-13T21:52:44.548Z</time></trkpt><trkpt lat="9.9575117" lon="-84.117127"><ele>1062.0</ele><time>2026-04-13T21:52:46.547Z</time></trkpt><trkpt lat="9.9574338" lon="-84.1170558"><ele>1062.1666666666667</ele><time>2026-04-13T21:52:48.548Z</time></trkpt><trkpt lat="9.9573594" lon="-84.1169804"><ele>1062.3333333333333</ele><time>2026-04-13T21:52:50.548Z</time></trkpt><trkpt lat="9.957285" lon="-84.1169068"><ele>1062.5</ele><time>2026-04-13T21:52:52.549Z</time></trkpt><trkpt lat="9.9572368" lon="-84.1168573"><ele>1062.6666666666665</ele><time>2026-04-13T21:52:54.549Z</time></trkpt><trkpt lat="9.9571784" lon="-84.1167852"><ele>1062.8333333333333</ele><time>2026-04-13T21:53:01.548Z</time></trkpt><trkpt lat="9.9571211" lon="-84.1167308"><ele>1063.0</ele><time>2026-04-13T21:53:03.549Z</time></trkpt><trkpt lat="9.9570428" lon="-84.1166703"><ele>1063.0</ele><time>2026-04-13T21:53:05.548Z</time></trkpt><trkpt lat="9.9569691" lon="-84.1165952"><ele>1063.0</ele><time>2026-04-13T21:53:07.548Z</time></trkpt><trkpt lat="9.9569005" lon="-84.1165449"><ele>1063.0</ele><time>2026-04-13T21:53:09.549Z</time></trkpt><trkpt lat="9.9568263" lon="-84.1164811"><ele>1063.0</ele><time>2026-04-13T21:53:11.548Z</time></trkpt><trkpt lat="9.9567762" lon="-84.1164421"><ele>1063.0</ele><time>2026-04-13T21:53:12.548Z</time></trkpt><trkpt lat="9.9566862" lon="-84.116362"><ele>1063.8</ele><time>2026-04-13T21:53:14.548Z</time></trkpt><trkpt lat="9.9565901" lon="-84.1162881"><ele>1064.6</ele><time>2026-04-13T21:53:16.549Z</time></trkpt><trkpt lat="9.9565124" lon="-84.1162342"><ele>1065.4</ele><time>2026-04-13T21:53:18.548Z</time></trkpt><trkpt lat="9.9564431" lon="-84.1161675"><ele>1066.2</ele><time>2026-04-13T21:53:20.548Z</time></trkpt><trkpt lat="9.9563809" lon="-84.1161134"><ele>1067.0</ele><time>2026-04-13T21:53:23.548Z</time></trkpt><trkpt lat="9.9563252" lon="-84.1160743"><ele>1067.0</ele><time>2026-04-13T21:53:26.548Z</time></trkpt><trkpt lat="9.956261" lon="-84.1160319"><ele>1067.0</ele><time>2026-04-13T21:53:29.548Z</time></trkpt><trkpt lat="9.956209" lon="-84.1159932"><ele>1067.0</ele><time>2026-04-13T21:53:31.548Z</time></trkpt><trkpt lat="9.9561421" lon="-84.1159385"><ele>1067.0</ele><time>2026-04-13T21:53:33.549Z</time></trkpt><trkpt lat="9.9560536" lon="-84.1158677"><ele>1067.0</ele><time>2026-04-13T21:53:35.547Z</time></trkpt><trkpt lat="9.95595" lon="-84.1157945"><ele>1067.6</ele><time>2026-04-13T21:53:37.548Z</time></trkpt><trkpt lat="9.9558498" lon="-84.1157214"><ele>1068.2</ele><time>2026-04-13T21:53:39.547Z</time></trkpt><trkpt lat="9.955761" lon="-84.1156564"><ele>1068.8</ele><time>2026-04-13T21:53:41.548Z</time></trkpt><trkpt lat="9.9556887" lon="-84.1156014"><ele>1069.4</ele><time>2026-04-13T21:53:43.548Z</time></trkpt><trkpt lat="9.9556208" lon="-84.1155449"><ele>1070.0</ele><time>2026-04-13T21:53:45.548Z</time></trkpt><trkpt lat="9.9555497" lon="-84.115505"><ele>1070.0</ele><time>2026-04-13T21:53:48.548Z</time></trkpt><trkpt lat="9.9554782" lon="-84.1154663"><ele>1070.0</ele><time>2026-04-13T21:53:50.55Z</time></trkpt><trkpt lat="9.9553798" lon="-84.1154035"><ele>1070.0</ele><time>2026-04-13T21:53:52.548Z</time></trkpt><trkpt lat="9.9552981" lon="-84.1153427"><ele>1070.0</ele><time>2026-04-13T21:53:54.548Z</time></trkpt><trkpt lat="9.9552332" lon="-84.115298"><ele>1070.0</ele><time>2026-04-13T21:53:56.547Z</time></trkpt><trkpt lat="9.9551656" lon="-84.1152471"><ele>1070.0</ele><time>2026-04-13T21:53:58.547Z</time></trkpt><trkpt lat="9.955099" lon="-84.1152082"><ele>1070.0</ele><time>2026-04-13T21:54:00.548Z</time></trkpt><trkpt lat="9.9550337" lon="-84.1151654"><ele>1070.0</ele><time>2026-04-13T21:54:03.549Z</time></trkpt><trkpt lat="9.9549746" lon="-84.1151209"><ele>1070.0</ele><time>2026-04-13T21:54:07.548Z</time></trkpt><trkpt lat="9.9549178" lon="-84.1150796"><ele>1070.0</ele><time>2026-04-13T21:54:11.549Z</time></trkpt><trkpt lat="9.9548523" lon="-84.1150345"><ele>1070.0</ele><time>2026-04-13T21:54:18.548Z</time></trkpt><trkpt lat="9.954779" lon="-84.1149812"><ele>1070.1666666666667</ele><time>2026-04-13T21:54:22.547Z</time></trkpt><trkpt lat="9.9547047" lon="-84.1149306"><ele>1070.3333333333335</ele><time>2026-04-13T21:54:24.548Z</time></trkpt><trkpt lat="9.9546411" lon="-84.114887"><ele>1070.5</ele><time>2026-04-13T21:54:26.548Z</time></trkpt><trkpt lat="9.9545881" lon="-84.1148475"><ele>1070.6666666666667</ele><time>2026-04-13T21:54:28.546Z</time></trkpt><trkpt lat="9.9545186" lon="-84.1148031"><ele>1070.8333333333333</ele><time>2026-04-13T21:54:31.548Z</time></trkpt><trkpt lat="9.9544405" lon="-84.114742"><ele>1071.0</ele><time>2026-04-13T21:54:33.547Z</time></trkpt><trkpt lat="9.9543688" lon="-84.1146836"><ele>1071.0</ele><time>2026-04-13T21:54:35.547Z</time></trkpt><trkpt lat="9.9542907" lon="-84.1146275"><ele>1071.0</ele><time>2026-04-13T21:54:38.547Z</time></trkpt><trkpt lat="9.9542327" lon="-84.1145932"><ele>1071.0</ele><time>2026-04-13T21:54:41.547Z</time></trkpt><trkpt lat="9.9541794" lon="-84.1145535"><ele>1071.0</ele><time>2026-04-13T21:54:45.548Z</time></trkpt><trkpt lat="9.954127" lon="-84.1145118"><ele>1071.0</ele><time>2026-04-13T21:54:51.548Z</time></trkpt><trkpt lat="9.954069" lon="-84.1144703"><ele>1071.0</ele><time>2026-04-13T21:54:58.548Z</time></trkpt><trkpt lat="9.95401" lon="-84.1144386"><ele>1071.0</ele><time>2026-04-13T21:55:04.546Z</time></trkpt><trkpt lat="9.9539465" lon="-84.1144015"><ele>1071.2</ele><time>2026-04-13T21:55:07.547Z</time></trkpt><trkpt lat="9.9538694" lon="-84.1143516"><ele>1071.3999999999999</ele><time>2026-04-13T21:55:09.547Z</time></trkpt><trkpt lat="9.9537798" lon="-84.1142888"><ele>1071.6</ele><time>2026-04-13T21:55:11.547Z</time></trkpt><trkpt lat="9.9536752" lon="-84.114212"><ele>1071.8</ele><time>2026-04-13T21:55:13.547Z</time></trkpt><trkpt lat="9.9536174" lon="-84.1141703"><ele>1072.0</ele><time>2026-04-13T21:55:14.547Z</time></trkpt><trkpt lat="9.953559" lon="-84.1141325"><ele>1072.0</ele><time>2026-04-13T21:55:15.547Z</time></trkpt><trkpt lat="9.9535074" lon="-84.1140919"><ele>1072.0</ele><time>2026-04-13T21:55:16.547Z</time></trkpt><trkpt lat="9.9534155" lon="-84.1140327"><ele>1072.0</ele><time>2026-04-13T21:55:18.547Z</time></trkpt><trkpt lat="9.9533236" lon="-84.1139645"><ele>1072.0</ele><time>2026-04-13T21:55:20.547Z</time></trkpt><trkpt lat="9.9532232" lon="-84.1139174"><ele>1072.0</ele><time>2026-04-13T21:55:22.547Z</time></trkpt><trkpt lat="9.9531613" lon="-84.1138706"><ele>1072.5</ele><time>2026-04-13T21:55:24.547Z</time></trkpt><trkpt lat="9.9530766" lon="-84.1138104"><ele>1073.0</ele><time>2026-04-13T21:55:26.547Z</time></trkpt><trkpt lat="9.9530249" lon="-84.1137714"><ele>1073.5</ele><time>2026-04-13T21:55:27.547Z</time></trkpt><trkpt lat="9.9529624" lon="-84.1137292"><ele>1074.0</ele><time>2026-04-13T21:55:28.546Z</time></trkpt><trkpt lat="9.9528598" lon="-84.1136635"><ele>1074.5</ele><time>2026-04-13T21:55:30.548Z</time></trkpt><trkpt lat="9.9528023" lon="-84.113628"><ele>1075.0</ele><time>2026-04-13T21:55:31.547Z</time></trkpt><trkpt lat="9.952748" lon="-84.1135857"><ele>1075.0</ele><time>2026-04-13T21:55:32.546Z</time></trkpt><trkpt lat="9.9526967" lon="-84.1135446"><ele>1075.0</ele><time>2026-04-13T21:55:33.549Z</time></trkpt><trkpt lat="9.9526024" lon="-84.1134772"><ele>1075.0</ele><time>2026-04-13T21:55:35.547Z</time></trkpt><trkpt lat="9.9525145" lon="-84.1134066"><ele>1075.0</ele><time>2026-04-13T21:55:37.548Z</time></trkpt><trkpt lat="9.9524326" lon="-84.113368"><ele>1075.0</ele><time>2026-04-13T21:55:39.548Z</time></trkpt><trkpt lat="9.9523671" lon="-84.1133165"><ele>1075.0</ele><time>2026-04-13T21:55:41.547Z</time></trkpt><trkpt lat="9.9523169" lon="-84.1132748"><ele>1075.0</ele><time>2026-04-13T21:55:43.546Z</time></trkpt><trkpt lat="9.9522646" lon="-84.1132374"><ele>1075.0</ele><time>2026-04-13T21:55:47.547Z</time></trkpt><trkpt lat="9.9521853" lon="-84.113184"><ele>1075.0</ele><time>2026-04-13T21:55:51.546Z</time></trkpt><trkpt lat="9.9520968" lon="-84.113125"><ele>1075.0</ele><time>2026-04-13T21:55:53.548Z</time></trkpt><trkpt lat="9.9519995" lon="-84.1130662"><ele>1075.0</ele><time>2026-04-13T21:55:55.547Z</time></trkpt><trkpt lat="9.951905" lon="-84.1129964"><ele>1075.0</ele><time>2026-04-13T21:55:57.547Z</time></trkpt><trkpt lat="9.9518086" lon="-84.1129267"><ele>1075.0</ele><time>2026-04-13T21:55:59.547Z</time></trkpt><trkpt lat="9.9517565" lon="-84.1128894"><ele>1075.0</ele><time>2026-04-13T21:56:00.548Z</time></trkpt><trkpt lat="9.9516983" lon="-84.1128524"><ele>1075.0</ele><time>2026-04-13T21:56:01.548Z</time></trkpt><trkpt lat="9.9516399" lon="-84.1128202"><ele>1075.0</ele><time>2026-04-13T21:56:02.548Z</time></trkpt><trkpt lat="9.9515432" lon="-84.1127474"><ele>1075.0</ele><time>2026-04-13T21:56:04.547Z</time></trkpt><trkpt lat="9.9514362" lon="-84.1126792"><ele>1075.5</ele><time>2026-04-13T21:56:06.546Z</time></trkpt><trkpt lat="9.9513858" lon="-84.1126396"><ele>1076.0</ele><time>2026-04-13T21:56:07.548Z</time></trkpt><trkpt lat="9.951331" lon="-84.1126013"><ele>1076.5</ele><time>2026-04-13T21:56:08.547Z</time></trkpt><trkpt lat="9.9512783" lon="-84.1125626"><ele>1077.0</ele><time>2026-04-13T21:56:09.547Z</time></trkpt><trkpt lat="9.9512226" lon="-84.1125229"><ele>1077.5</ele><time>2026-04-13T21:56:10.548Z</time></trkpt><trkpt lat="9.9511045" lon="-84.1124618"><ele>1078.0</ele><time>2026-04-13T21:56:12.547Z</time></trkpt><trkpt lat="9.9510506" lon="-84.1124153"><ele>1078.2857142857142</ele><time>2026-04-13T21:56:13.548Z</time></trkpt><trkpt lat="9.9509918" lon="-84.1123626"><ele>1078.5714285714284</ele><time>2026-04-13T21:56:14.546Z</time></trkpt><trkpt lat="9.9509235" lon="-84.1123086"><ele>1078.857142857143</ele><time>2026-04-13T21:56:15.548Z</time></trkpt><trkpt lat="9.9508655" lon="-84.1122692"><ele>1079.142857142857</ele><time>2026-04-13T21:56:16.548Z</time></trkpt><trkpt lat="9.9508116" lon="-84.1122334"><ele>1079.4285714285713</ele><time>2026-04-13T21:56:17.547Z</time></trkpt><trkpt lat="9.950754" lon="-84.1121937"><ele>1079.7142857142858</ele><time>2026-04-13T21:56:18.547Z</time></trkpt><trkpt lat="9.9506961" lon="-84.112152"><ele>1080.0</ele><time>2026-04-13T21:56:19.548Z</time></trkpt><trkpt lat="9.9506328" lon="-84.1121088"><ele>1080.6</ele><time>2026-04-13T21:56:20.547Z</time></trkpt><trkpt lat="9.950579" lon="-84.1120723"><ele>1081.2</ele><time>2026-04-13T21:56:21.546Z</time></trkpt><trkpt lat="9.9504812" lon="-84.1120015"><ele>1081.8</ele><time>2026-04-13T21:56:23.547Z</time></trkpt><trkpt lat="9.9504283" lon="-84.1119662"><ele>1082.4</ele><time>2026-04-13T21:56:24.549Z</time></trkpt><trkpt lat="9.9503297" lon="-84.1118896"><ele>1083.0</ele><time>2026-04-13T21:56:26.547Z</time></trkpt><trkpt lat="9.9502344" lon="-84.1118214"><ele>1083.0</ele><time>2026-04-13T21:56:28.548Z</time></trkpt><trkpt lat="9.9501542" lon="-84.1117685"><ele>1083.0</ele><time>2026-04-13T21:56:30.546Z</time></trkpt><trkpt lat="9.9500906" lon="-84.1117309"><ele>1083.0</ele><time>2026-04-13T21:56:32.548Z</time></trkpt><trkpt lat="9.9500192" lon="-84.1116852"><ele>1083.0</ele><time>2026-04-13T21:56:35.549Z</time></trkpt><trkpt lat="9.9499532" lon="-84.1116431"><ele>1083.0</ele><time>2026-04-13T21:56:38.547Z</time></trkpt><trkpt lat="9.949877" lon="-84.1115936"><ele>1083.0</ele><time>2026-04-13T21:56:41.548Z</time></trkpt><trkpt lat="9.9497958" lon="-84.1115337"><ele>1083.6666666666667</ele><time>2026-04-13T21:56:44.547Z</time></trkpt><trkpt lat="9.9497429" lon="-84.1114944"><ele>1084.3333333333333</ele><time>2026-04-13T21:56:45.548Z</time></trkpt><trkpt lat="9.9496804" lon="-84.1114495"><ele>1085.0</ele><time>2026-04-13T21:56:46.547Z</time></trkpt><trkpt lat="9.9496211" lon="-84.1114087"><ele>1085.6666666666665</ele><time>2026-04-13T21:56:47.548Z</time></trkpt><trkpt lat="9.9495216" lon="-84.1113481"><ele>1086.3333333333333</ele><time>2026-04-13T21:56:49.547Z</time></trkpt><trkpt lat="9.9494531" lon="-84.1112897"><ele>1087.0</ele><time>2026-04-13T21:56:51.548Z</time></trkpt><trkpt lat="9.9493739" lon="-84.1112418"><ele>1087.0</ele><time>2026-04-13T21:56:53.547Z</time></trkpt><trkpt lat="9.9492936" lon="-84.1111875"><ele>1087.0</ele><time>2026-04-13T21:56:55.547Z</time></trkpt><trkpt lat="9.9492253" lon="-84.1111338"><ele>1087.0</ele><time>2026-04-13T21:56:58.547Z</time></trkpt><trkpt lat="9.949141" lon="-84.11108"><ele>1087.0</ele><time>2026-04-13T21:57:00.546Z</time></trkpt><trkpt lat="9.9490431" lon="-84.1110145"><ele>1087.0</ele><time>2026-04-13T21:57:02.546Z</time></trkpt><trkpt lat="9.9489569" lon="-84.1109553"><ele>1087.8</ele><time>2026-04-13T21:57:04.547Z</time></trkpt><trkpt lat="9.948882" lon="-84.1108976"><ele>1088.6</ele><time>2026-04-13T21:57:06.548Z</time></trkpt><trkpt lat="9.9487874" lon="-84.1108329"><ele>1089.3999999999999</ele><time>2026-04-13T21:57:08.547Z</time></trkpt><trkpt lat="9.948703" lon="-84.1107789"><ele>1090.2</ele><time>2026-04-13T21:57:10.547Z</time></trkpt><trkpt lat="9.9486377" lon="-84.1107406"><ele>1091.0</ele><time>2026-04-13T21:57:13.548Z</time></trkpt><trkpt lat="9.9485723" lon="-84.1107139"><ele>1091.2</ele><time>2026-04-13T21:57:30.547Z</time></trkpt><trkpt lat="9.9484685" lon="-84.1106477"><ele>1091.3999999999999</ele><time>2026-04-13T21:57:32.546Z</time></trkpt><trkpt lat="9.9483945" lon="-84.1106001"><ele>1091.6</ele><time>2026-04-13T21:57:33.547Z</time></trkpt><trkpt lat="9.9483139" lon="-84.1105479"><ele>1091.8</ele><time>2026-04-13T21:57:34.548Z</time></trkpt><trkpt lat="9.9482247" lon="-84.1104926"><ele>1092.0</ele><time>2026-04-13T21:57:35.547Z</time></trkpt><trkpt lat="9.9481282" lon="-84.1104391"><ele>1092.8</ele><time>2026-04-13T21:57:36.547Z</time></trkpt><trkpt lat="9.9480459" lon="-84.1103839"><ele>1093.6</ele><time>2026-04-13T21:57:37.546Z</time></trkpt><trkpt lat="9.9479686" lon="-84.1103313"><ele>1094.3999999999999</ele><time>2026-04-13T21:57:38.546Z</time></trkpt><trkpt lat="9.9479026" lon="-84.1102844"><ele>1095.2</ele><time>2026-04-13T21:57:39.546Z</time></trkpt><trkpt lat="9.9478124" lon="-84.1102211"><ele>1096.0</ele><time>2026-04-13T21:57:41.546Z</time></trkpt><trkpt lat="9.947734" lon="-84.1101668"><ele>1096.0</ele><time>2026-04-13T21:57:43.547Z</time></trkpt><trkpt lat="9.9476484" lon="-84.110103"><ele>1096.0</ele><time>2026-04-13T21:57:45.547Z</time></trkpt><trkpt lat="9.9475357" lon="-84.1100376"><ele>1096.0</ele><time>2026-04-13T21:57:47.548Z</time></trkpt><trkpt lat="9.9474657" lon="-84.1099967"><ele>1096.0</ele><time>2026-04-13T21:57:48.547Z</time></trkpt><trkpt lat="9.947377" lon="-84.1099645"><ele>1096.0</ele><time>2026-04-13T21:57:49.547Z</time></trkpt><trkpt lat="9.9472723" lon="-84.1099614"><ele>1096.5</ele><time>2026-04-13T21:57:50.547Z</time></trkpt><trkpt lat="9.9471581" lon="-84.1099667"><ele>1097.0</ele><time>2026-04-13T21:57:51.547Z</time></trkpt><trkpt lat="9.9470367" lon="-84.1100101"><ele>1097.5</ele><time>2026-04-13T21:57:52.546Z</time></trkpt><trkpt lat="9.946907" lon="-84.1100615"><ele>1098.0</ele><time>2026-04-13T21:57:53.547Z</time></trkpt><trkpt lat="9.9467739" lon="-84.1101229"><ele>1099.0</ele><time>2026-04-13T21:57:54.547Z</time></trkpt><trkpt lat="9.9466452" lon="-84.1101894"><ele>1100.0</ele><time>2026-04-13T21:57:55.548Z</time></trkpt><trkpt lat="9.9465294" lon="-84.1102529"><ele>1101.0</ele><time>2026-04-13T21:57:56.546Z</time></trkpt><trkpt lat="9.946417" lon="-84.1103164"><ele>1102.0</ele><time>2026-04-13T21:57:57.547Z</time></trkpt><trkpt lat="9.9463254" lon="-84.1103787"><ele>1102.0</ele><time>2026-04-13T21:57:58.547Z</time></trkpt><trkpt lat="9.946237" lon="-84.1104478"><ele>1102.0</ele><time>2026-04-13T21:57:59.547Z</time></trkpt><trkpt lat="9.9461586" lon="-84.1105313"><ele>1102.0</ele><time>2026-04-13T21:58:00.547Z</time></trkpt><trkpt lat="9.946101" lon="-84.1106281"><ele>1102.0</ele><time>2026-04-13T21:58:01.546Z</time></trkpt><trkpt lat="9.9460603" lon="-84.1107326"><ele>1102.0</ele><time>2026-04-13T21:58:02.546Z</time></trkpt><trkpt lat="9.9460348" lon="-84.1108451"><ele>1101.4</ele><time>2026-04-13T21:58:03.546Z</time></trkpt><trkpt lat="9.9460259" lon="-84.1109645"><ele>1100.8000000000002</ele><time>2026-04-13T21:58:04.546Z</time></trkpt><trkpt lat="9.9460157" lon="-84.1110674"><ele>1100.2</ele><time>2026-04-13T21:58:05.547Z</time></trkpt><trkpt lat="9.9460083" lon="-84.1111759"><ele>1099.6000000000001</ele><time>2026-04-13T21:58:06.546Z</time></trkpt><trkpt lat="9.9459978" lon="-84.1112813"><ele>1099.0</ele><time>2026-04-13T21:58:07.547Z</time></trkpt><trkpt lat="9.9459987" lon="-84.1113971"><ele>1099.0</ele><time>2026-04-13T21:58:08.547Z</time></trkpt><trkpt lat="9.9459918" lon="-84.1115311"><ele>1099.0</ele><time>2026-04-13T21:58:09.547Z</time></trkpt><trkpt lat="9.9459804" lon="-84.1116724"><ele>1099.0</ele><time>2026-04-13T21:58:10.546Z</time></trkpt><trkpt lat="9.9459706" lon="-84.1118199"><ele>1099.0</ele><time>2026-04-13T21:58:11.547Z</time></trkpt><trkpt lat="9.9459632" lon="-84.1119623"><ele>1099.0</ele><time>2026-04-13T21:58:12.547Z</time></trkpt><trkpt lat="9.9459607" lon="-84.1121075"><ele>1099.0</ele><time>2026-04-13T21:58:13.547Z</time></trkpt><trkpt lat="9.9459413" lon="-84.1122334"><ele>1099.0</ele><time>2026-04-13T21:58:14.547Z</time></trkpt><trkpt lat="9.9459271" lon="-84.1123519"><ele>1099.0</ele><time>2026-04-13T21:58:15.547Z</time></trkpt><trkpt lat="9.9459155" lon="-84.1124667"><ele>1099.0</ele><time>2026-04-13T21:58:16.546Z</time></trkpt><trkpt lat="9.9459033" lon="-84.1125638"><ele>1099.0</ele><time>2026-04-13T21:58:17.546Z</time></trkpt><trkpt lat="9.94589" lon="-84.1126585"><ele>1099.0</ele><time>2026-04-13T21:58:18.547Z</time></trkpt><trkpt lat="9.9458769" lon="-84.1127398"><ele>1099.0</ele><time>2026-04-13T21:58:19.546Z</time></trkpt><trkpt lat="9.9458642" lon="-84.1128269"><ele>1099.0</ele><time>2026-04-13T21:58:20.547Z</time></trkpt><trkpt lat="9.9458515" lon="-84.1129018"><ele>1099.0</ele><time>2026-04-13T21:58:21.547Z</time></trkpt><trkpt lat="9.9458381" lon="-84.1129768"><ele>1097.1666666666665</ele><time>2026-04-13T21:58:22.547Z</time></trkpt><trkpt lat="9.9458184" lon="-84.1130422"><ele>1095.3333333333333</ele><time>2026-04-13T21:58:23.547Z</time></trkpt><trkpt lat="9.9458003" lon="-84.1131205"><ele>1093.5</ele><time>2026-04-13T21:58:24.547Z</time></trkpt><trkpt lat="9.9457853" lon="-84.1132022"><ele>1091.6666666666667</ele><time>2026-04-13T21:58:25.546Z</time></trkpt><trkpt lat="9.9457641" lon="-84.1132987"><ele>1089.8333333333335</ele><time>2026-04-13T21:58:26.547Z</time></trkpt><trkpt lat="9.9457455" lon="-84.1134008"><ele>1088.0</ele><time>2026-04-13T21:58:27.547Z</time></trkpt><trkpt lat="9.9457309" lon="-84.1135008"><ele>1087.6</ele><time>2026-04-13T21:58:28.546Z</time></trkpt><trkpt lat="9.9457025" lon="-84.1135965"><ele>1087.1999999999998</ele><time>2026-04-13T21:58:29.546Z</time></trkpt><trkpt lat="9.945671" lon="-84.1136976"><ele>1086.8</ele><time>2026-04-13T21:58:30.546Z</time></trkpt><trkpt lat="9.9456418" lon="-84.1137847"><ele>1086.3999999999999</ele><time>2026-04-13T21:58:31.547Z</time></trkpt><trkpt lat="9.9456112" lon="-84.1138666"><ele>1086.0</ele><time>2026-04-13T21:58:32.547Z</time></trkpt><trkpt lat="9.9455764" lon="-84.1139471"><ele>1086.0</ele><time>2026-04-13T21:58:33.547Z</time></trkpt><trkpt lat="9.9455408" lon="-84.114032"><ele>1086.0</ele><time>2026-04-13T21:58:34.547Z</time></trkpt><trkpt lat="9.9455047" lon="-84.1141134"><ele>1086.0</ele><time>2026-04-13T21:58:35.547Z</time></trkpt><trkpt lat="9.9454664" lon="-84.1142011"><ele>1086.0</ele><time>2026-04-13T21:58:36.547Z</time></trkpt><trkpt lat="9.945426" lon="-84.114278"><ele>1086.0</ele><time>2026-04-13T21:58:37.547Z</time></trkpt><trkpt lat="9.9453866" lon="-84.114355"><ele>1086.0</ele><time>2026-04-13T21:58:38.547Z</time></trkpt><trkpt lat="9.9453416" lon="-84.1144332"><ele>1083.5</ele><time>2026-04-13T21:58:39.547Z</time></trkpt><trkpt lat="9.9452959" lon="-84.1145044"><ele>1081.0</ele><time>2026-04-13T21:58:40.546Z</time></trkpt><trkpt lat="9.9452533" lon="-84.1145721"><ele>1078.5</ele><time>2026-04-13T21:58:41.547Z</time></trkpt><trkpt lat="9.9452051" lon="-84.1146405"><ele>1076.0</ele><time>2026-04-13T21:58:42.547Z</time></trkpt><trkpt lat="9.9451547" lon="-84.1147134"><ele>1073.5</ele><time>2026-04-13T21:58:43.547Z</time></trkpt><trkpt lat="9.9451059" lon="-84.1147796"><ele>1071.0</ele><time>2026-04-13T21:58:44.548Z</time></trkpt><trkpt lat="9.9450622" lon="-84.1148492"><ele>1073.0</ele><time>2026-04-13T21:58:45.546Z</time></trkpt><trkpt lat="9.9450063" lon="-84.1149288"><ele>1075.0</ele><time>2026-04-13T21:58:46.547Z</time></trkpt><trkpt lat="9.9449493" lon="-84.1150124"><ele>1077.0</ele><time>2026-04-13T21:58:47.546Z</time></trkpt><trkpt lat="9.9448944" lon="-84.1150886"><ele>1079.0</ele><time>2026-04-13T21:58:48.546Z</time></trkpt><trkpt lat="9.9448439" lon="-84.1151501"><ele>1081.0</ele><time>2026-04-13T21:58:49.547Z</time></trkpt><trkpt lat="9.9447928" lon="-84.1152168"><ele>1081.0</ele><time>2026-04-13T21:58:50.546Z</time></trkpt><trkpt lat="9.9447476" lon="-84.1152736"><ele>1081.0</ele><time>2026-04-13T21:58:51.545Z</time></trkpt><trkpt lat="9.9446992" lon="-84.1153333"><ele>1081.0</ele><time>2026-04-13T21:58:52.546Z</time></trkpt><trkpt lat="9.9446486" lon="-84.1153933"><ele>1081.0</ele><time>2026-04-13T21:58:53.546Z</time></trkpt><trkpt lat="9.9445906" lon="-84.1154562"><ele>1081.0</ele><time>2026-04-13T21:58:54.546Z</time></trkpt><trkpt lat="9.9445307" lon="-84.1155229"><ele>1081.0</ele><time>2026-04-13T21:58:55.547Z</time></trkpt><trkpt lat="9.9444634" lon="-84.115597"><ele>1081.0</ele><time>2026-04-13T21:58:56.547Z</time></trkpt><trkpt lat="9.9444037" lon="-84.1156615"><ele>1081.0</ele><time>2026-04-13T21:58:57.547Z</time></trkpt><trkpt lat="9.9443454" lon="-84.1157217"><ele>1081.0</ele><time>2026-04-13T21:58:58.547Z</time></trkpt><trkpt lat="9.9442901" lon="-84.1157817"><ele>1081.0</ele><time>2026-04-13T21:58:59.546Z</time></trkpt><trkpt lat="9.9442293" lon="-84.1158483"><ele>1081.0</ele><time>2026-04-13T21:59:00.547Z</time></trkpt><trkpt lat="9.9441721" lon="-84.1159087"><ele>1081.0</ele><time>2026-04-13T21:59:01.547Z</time></trkpt><trkpt lat="9.9441206" lon="-84.1159613"><ele>1082.5</ele><time>2026-04-13T21:59:02.548Z</time></trkpt><trkpt lat="9.9440707" lon="-84.1160115"><ele>1084.0</ele><time>2026-04-13T21:59:03.546Z</time></trkpt><trkpt lat="9.9440223" lon="-84.1160586"><ele>1085.5</ele><time>2026-04-13T21:59:04.547Z</time></trkpt><trkpt lat="9.9439575" lon="-84.116128"><ele>1087.0</ele><time>2026-04-13T21:59:06.547Z</time></trkpt><trkpt lat="9.9439014" lon="-84.1161839"><ele>1088.5</ele><time>2026-04-13T21:59:09.546Z</time></trkpt><trkpt lat="9.9438531" lon="-84.1162321"><ele>1090.0</ele><time>2026-04-13T21:59:11.545Z</time></trkpt><trkpt lat="9.9437787" lon="-84.11626"><ele>1090.0</ele><time>2026-04-13T21:59:14.546Z</time></trkpt><trkpt lat="9.9437128" lon="-84.1163143"><ele>1090.0</ele><time>2026-04-13T21:59:17.546Z</time></trkpt><trkpt lat="9.9436579" lon="-84.1163614"><ele>1090.0</ele><time>2026-04-13T21:59:20.546Z</time></trkpt><trkpt lat="9.9436052" lon="-84.1164063"><ele>1090.0</ele><time>2026-04-13T21:59:22.547Z</time></trkpt><trkpt lat="9.9435345" lon="-84.1164652"><ele>1090.0</ele><time>2026-04-13T21:59:24.546Z</time></trkpt><trkpt lat="9.9434596" lon="-84.1165441"><ele>1090.0</ele><time>2026-04-13T21:59:26.545Z</time></trkpt><trkpt lat="9.9433993" lon="-84.1166018"><ele>1090.6</ele><time>2026-04-13T21:59:28.546Z</time></trkpt><trkpt lat="9.9433302" lon="-84.1166438"><ele>1091.2</ele><time>2026-04-13T21:59:30.548Z</time></trkpt><trkpt lat="9.9432431" lon="-84.1167003"><ele>1091.8</ele><time>2026-04-13T21:59:32.547Z</time></trkpt><trkpt lat="9.9431472" lon="-84.116762"><ele>1092.4</ele><time>2026-04-13T21:59:34.546Z</time></trkpt><trkpt lat="9.9430649" lon="-84.1168034"><ele>1093.0</ele><time>2026-04-13T21:59:36.547Z</time></trkpt><trkpt lat="9.9429992" lon="-84.1168344"><ele>1093.0</ele><time>2026-04-13T21:59:38.547Z</time></trkpt><trkpt lat="9.9428939" lon="-84.1168862"><ele>1093.0</ele><time>2026-04-13T21:59:40.547Z</time></trkpt><trkpt lat="9.9427711" lon="-84.116939"><ele>1093.0</ele><time>2026-04-13T21:59:42.547Z</time></trkpt><trkpt lat="9.9426954" lon="-84.1169604"><ele>1093.0</ele><time>2026-04-13T21:59:43.547Z</time></trkpt><trkpt lat="9.9426072" lon="-84.1169847"><ele>1093.0</ele><time>2026-04-13T21:59:44.548Z</time></trkpt><trkpt lat="9.942519" lon="-84.1170106"><ele>1093.8333333333333</ele><time>2026-04-13T21:59:45.547Z</time></trkpt><trkpt lat="9.9424332" lon="-84.1170319"><ele>1094.6666666666665</ele><time>2026-04-13T21:59:46.546Z</time></trkpt><trkpt lat="9.9423436" lon="-84.1170509"><ele>1095.5</ele><time>2026-04-13T21:59:47.547Z</time></trkpt><trkpt lat="9.9422601" lon="-84.1170663"><ele>1096.3333333333333</ele><time>2026-04-13T21:59:48.547Z</time></trkpt><trkpt lat="9.9421764" lon="-84.1170847"><ele>1097.1666666666667</ele><time>2026-04-13T21:59:49.547Z</time></trkpt><trkpt lat="9.9420973" lon="-84.1171015"><ele>1098.0</ele><time>2026-04-13T21:59:50.545Z</time></trkpt><trkpt lat="9.9420141" lon="-84.1171184"><ele>1098.0</ele><time>2026-04-13T21:59:51.546Z</time></trkpt><trkpt lat="9.9419319" lon="-84.1171354"><ele>1098.0</ele><time>2026-04-13T21:59:52.546Z</time></trkpt><trkpt lat="9.9418478" lon="-84.1171482"><ele>1098.0</ele><time>2026-04-13T21:59:53.547Z</time></trkpt><trkpt lat="9.9417604" lon="-84.1171544"><ele>1098.0</ele><time>2026-04-13T21:59:54.545Z</time></trkpt><trkpt lat="9.9416744" lon="-84.1171643"><ele>1098.0</ele><time>2026-04-13T21:59:55.547Z</time></trkpt><trkpt lat="9.9415892" lon="-84.1171686"><ele>1098.0</ele><time>2026-04-13T21:59:56.547Z</time></trkpt><trkpt lat="9.9415151" lon="-84.1171754"><ele>1098.0</ele><time>2026-04-13T21:59:57.546Z</time></trkpt><trkpt lat="9.9414443" lon="-84.1171821"><ele>1098.0</ele><time>2026-04-13T21:59:58.545Z</time></trkpt><trkpt lat="9.9413256" lon="-84.1171869"><ele>1098.0</ele><time>2026-04-13T22:00:00.546Z</time></trkpt><trkpt lat="9.9412167" lon="-84.1171878"><ele>1098.0</ele><time>2026-04-13T22:00:02.547Z</time></trkpt><trkpt lat="9.9411062" lon="-84.1171903"><ele>1098.0</ele><time>2026-04-13T22:00:04.546Z</time></trkpt><trkpt lat="9.9409869" lon="-84.1171794"><ele>1098.0</ele><time>2026-04-13T22:00:06.546Z</time></trkpt><trkpt lat="9.9409192" lon="-84.1171756"><ele>1098.0</ele><time>2026-04-13T22:00:07.546Z</time></trkpt><trkpt lat="9.940844" lon="-84.1171668"><ele>1098.0</ele><time>2026-04-13T22:00:08.547Z</time></trkpt><trkpt lat="9.9407634" lon="-84.1171578"><ele>1098.0</ele><time>2026-04-13T22:00:09.546Z</time></trkpt><trkpt lat="9.9406859" lon="-84.1171554"><ele>1098.0</ele><time>2026-04-13T22:00:10.546Z</time></trkpt><trkpt lat="9.9406161" lon="-84.117143"><ele>1098.0</ele><time>2026-04-13T22:00:11.546Z</time></trkpt><trkpt lat="9.9405524" lon="-84.117134"><ele>1098.0</ele><time>2026-04-13T22:00:12.547Z</time></trkpt><trkpt lat="9.9404384" lon="-84.1171254"><ele>1097.8333333333333</ele><time>2026-04-13T22:00:14.547Z</time></trkpt><trkpt lat="9.9403737" lon="-84.1171217"><ele>1097.6666666666667</ele><time>2026-04-13T22:00:15.546Z</time></trkpt><trkpt lat="9.9403011" lon="-84.1171151"><ele>1097.5</ele><time>2026-04-13T22:00:16.545Z</time></trkpt><trkpt lat="9.9402213" lon="-84.1171048"><ele>1097.3333333333335</ele><time>2026-04-13T22:00:17.545Z</time></trkpt><trkpt lat="9.9401374" lon="-84.1170964"><ele>1097.1666666666667</ele><time>2026-04-13T22:00:18.546Z</time></trkpt><trkpt lat="9.9400433" lon="-84.1170861"><ele>1097.0</ele><time>2026-04-13T22:00:19.546Z</time></trkpt><trkpt lat="9.9399596" lon="-84.1170796"><ele>1097.0</ele><time>2026-04-13T22:00:20.547Z</time></trkpt><trkpt lat="9.9398794" lon="-84.1170744"><ele>1097.0</ele><time>2026-04-13T22:00:21.546Z</time></trkpt><trkpt lat="9.9397902" lon="-84.1170647"><ele>1097.0</ele><time>2026-04-13T22:00:22.547Z</time></trkpt><trkpt lat="9.9396919" lon="-84.1170567"><ele>1097.0</ele><time>2026-04-13T22:00:23.547Z</time></trkpt><trkpt lat="9.9395995" lon="-84.1170458"><ele>1097.0</ele><time>2026-04-13T22:00:24.548Z</time></trkpt><trkpt lat="9.9395136" lon="-84.1170335"><ele>1097.0</ele><time>2026-04-13T22:00:25.546Z</time></trkpt><trkpt lat="9.939423" lon="-84.117028"><ele>1097.0</ele><time>2026-04-13T22:00:26.546Z</time></trkpt><trkpt lat="9.9393354" lon="-84.1170146"><ele>1097.0</ele><time>2026-04-13T22:00:27.548Z</time></trkpt><trkpt lat="9.9392646" lon="-84.1170014"><ele>1097.0</ele><time>2026-04-13T22:00:28.546Z</time></trkpt><trkpt lat="9.9391479" lon="-84.116976"><ele>1097.0</ele><time>2026-04-13T22:00:30.547Z</time></trkpt><trkpt lat="9.9390239" lon="-84.1169528"><ele>1097.0</ele><time>2026-04-13T22:00:32.546Z</time></trkpt><trkpt lat="9.9389524" lon="-84.1169303"><ele>1097.3333333333335</ele><time>2026-04-13T22:00:33.546Z</time></trkpt><trkpt lat="9.9388849" lon="-84.1169109"><ele>1097.6666666666667</ele><time>2026-04-13T22:00:34.546Z</time></trkpt><trkpt lat="9.9388082" lon="-84.1168698"><ele>1098.0</ele><time>2026-04-13T22:00:35.547Z</time></trkpt><trkpt lat="9.9387421" lon="-84.116859"><ele>1098.3333333333333</ele><time>2026-04-13T22:00:36.546Z</time></trkpt><trkpt lat="9.9386131" lon="-84.1168318"><ele>1098.6666666666665</ele><time>2026-04-13T22:00:38.546Z</time></trkpt><trkpt lat="9.9385513" lon="-84.1168097"><ele>1099.0</ele><time>2026-04-13T22:00:39.547Z</time></trkpt><trkpt lat="9.9384263" lon="-84.1167827"><ele>1099.1666666666665</ele><time>2026-04-13T22:00:41.547Z</time></trkpt><trkpt lat="9.9382977" lon="-84.1167635"><ele>1099.3333333333333</ele><time>2026-04-13T22:00:43.545Z</time></trkpt><trkpt lat="9.9382307" lon="-84.1167542"><ele>1099.5</ele><time>2026-04-13T22:00:44.545Z</time></trkpt><trkpt lat="9.9381636" lon="-84.1167449"><ele>1099.6666666666667</ele><time>2026-04-13T22:00:45.546Z</time></trkpt><trkpt lat="9.9380962" lon="-84.1167267"><ele>1099.8333333333335</ele><time>2026-04-13T22:00:46.547Z</time></trkpt><trkpt lat="9.9380112" lon="-84.1167233"><ele>1100.0</ele><time>2026-04-13T22:00:47.547Z</time></trkpt><trkpt lat="9.9379331" lon="-84.1167185"><ele>1100.0</ele><time>2026-04-13T22:00:48.546Z</time></trkpt><trkpt lat="9.9378581" lon="-84.1167093"><ele>1100.0</ele><time>2026-04-13T22:00:49.548Z</time></trkpt><trkpt lat="9.9377807" lon="-84.1166998"><ele>1100.0</ele><time>2026-04-13T22:00:50.547Z</time></trkpt><trkpt lat="9.9377018" lon="-84.1166893"><ele>1100.0</ele><time>2026-04-13T22:00:51.545Z</time></trkpt><trkpt lat="9.9376154" lon="-84.116678"><ele>1100.0</ele><time>2026-04-13T22:00:52.545Z</time></trkpt><trkpt lat="9.9375226" lon="-84.1166684"><ele>1100.0</ele><time>2026-04-13T22:00:53.547Z</time></trkpt><trkpt lat="9.9374144" lon="-84.1166604"><ele>1099.5</ele><time>2026-04-13T22:00:54.546Z</time></trkpt><trkpt lat="9.9372949" lon="-84.1166513"><ele>1099.0</ele><time>2026-04-13T22:00:55.546Z</time></trkpt><trkpt lat="9.9371669" lon="-84.1166411"><ele>1098.5</ele><time>2026-04-13T22:00:56.547Z</time></trkpt><trkpt lat="9.9370358" lon="-84.1166301"><ele>1098.0</ele><time>2026-04-13T22:00:57.546Z</time></trkpt><trkpt lat="9.9368949" lon="-84.1166205"><ele>1098.0</ele><time>2026-04-13T22:00:58.545Z</time></trkpt><trkpt lat="9.9367523" lon="-84.1166092"><ele>1098.0</ele><time>2026-04-13T22:00:59.546Z</time></trkpt><trkpt lat="9.9366118" lon="-84.1165986"><ele>1098.0</ele><time>2026-04-13T22:01:00.545Z</time></trkpt><trkpt lat="9.936468" lon="-84.1165896"><ele>1098.0</ele><time>2026-04-13T22:01:01.547Z</time></trkpt><trkpt lat="9.9363255" lon="-84.1165775"><ele>1097.75</ele><time>2026-04-13T22:01:02.546Z</time></trkpt><trkpt lat="9.9361723" lon="-84.1165712"><ele>1097.5</ele><time>2026-04-13T22:01:03.546Z</time></trkpt><trkpt lat="9.9360266" lon="-84.1165612"><ele>1097.25</ele><time>2026-04-13T22:01:04.545Z</time></trkpt><trkpt lat="9.9358897" lon="-84.1165509"><ele>1097.0</ele><time>2026-04-13T22:01:05.546Z</time></trkpt><trkpt lat="9.93575" lon="-84.1165379"><ele>1097.0</ele><time>2026-04-13T22:01:06.546Z</time></trkpt><trkpt lat="9.9356058" lon="-84.1165187"><ele>1097.0</ele><time>2026-04-13T22:01:07.547Z</time></trkpt><trkpt lat="9.9354561" lon="-84.116502"><ele>1097.0</ele><time>2026-04-13T22:01:08.546Z</time></trkpt><trkpt lat="9.9353036" lon="-84.116484"><ele>1097.0</ele><time>2026-04-13T22:01:09.545Z</time></trkpt><trkpt lat="9.9351596" lon="-84.1164659"><ele>1097.0</ele><time>2026-04-13T22:01:10.546Z</time></trkpt><trkpt lat="9.9350087" lon="-84.1164449"><ele>1097.0</ele><time>2026-04-13T22:01:11.546Z</time></trkpt><trkpt lat="9.9348491" lon="-84.1164251"><ele>1097.6666666666667</ele><time>2026-04-13T22:01:12.546Z</time></trkpt><trkpt lat="9.9346779" lon="-84.1164063"><ele>1098.3333333333333</ele><time>2026-04-13T22:01:13.545Z</time></trkpt><trkpt lat="9.9345032" lon="-84.1163987"><ele>1099.0</ele><time>2026-04-13T22:01:14.547Z</time></trkpt><trkpt lat="9.9343241" lon="-84.1163869"><ele>1098.0</ele><time>2026-04-13T22:01:15.546Z</time></trkpt><trkpt lat="9.9341388" lon="-84.1163772"><ele>1097.0</ele><time>2026-04-13T22:01:16.546Z</time></trkpt><trkpt lat="9.9339447" lon="-84.1163647"><ele>1096.0</ele><time>2026-04-13T22:01:17.546Z</time></trkpt><trkpt lat="9.9337538" lon="-84.1163589"><ele>1096.0</ele><time>2026-04-13T22:01:18.545Z</time></trkpt><trkpt lat="9.9335696" lon="-84.116356"><ele>1096.0</ele><time>2026-04-13T22:01:19.546Z</time></trkpt><trkpt lat="9.9333909" lon="-84.1163493"><ele>1096.0</ele><time>2026-04-13T22:01:20.546Z</time></trkpt><trkpt lat="9.9332181" lon="-84.1163404"><ele>1095.6666666666665</ele><time>2026-04-13T22:01:21.546Z</time></trkpt><trkpt lat="9.9330554" lon="-84.1163404"><ele>1095.3333333333333</ele><time>2026-04-13T22:01:22.547Z</time></trkpt><trkpt lat="9.9328966" lon="-84.1163405"><ele>1095.0</ele><time>2026-04-13T22:01:23.546Z</time></trkpt><trkpt lat="9.932741" lon="-84.1163415"><ele>1095.0</ele><time>2026-04-13T22:01:24.545Z</time></trkpt><trkpt lat="9.9325871" lon="-84.1163459"><ele>1095.0</ele><time>2026-04-13T22:01:25.546Z</time></trkpt><trkpt lat="9.9324326" lon="-84.1163431"><ele>1095.0</ele><time>2026-04-13T22:01:26.545Z</time></trkpt><trkpt lat="9.9322788" lon="-84.1163432"><ele>1091.6666666666667</ele><time>2026-04-13T22:01:27.546Z</time></trkpt><trkpt lat="9.9321257" lon="-84.116349"><ele>1088.3333333333335</ele><time>2026-04-13T22:01:28.546Z</time></trkpt><trkpt lat="9.9319737" lon="-84.1163528"><ele>1085.0</ele><time>2026-04-13T22:01:29.546Z</time></trkpt><trkpt lat="9.9318253" lon="-84.1163569"><ele>1081.5</ele><time>2026-04-13T22:01:30.546Z</time></trkpt><trkpt lat="9.9316814" lon="-84.1163599"><ele>1078.0</ele><time>2026-04-13T22:01:31.547Z</time></trkpt><trkpt lat="9.9315345" lon="-84.1163662"><ele>1074.5</ele><time>2026-04-13T22:01:32.546Z</time></trkpt><trkpt lat="9.9313798" lon="-84.1163713"><ele>1071.0</ele><time>2026-04-13T22:01:33.546Z</time></trkpt><trkpt lat="9.9312205" lon="-84.116377"><ele>1071.0</ele><time>2026-04-13T22:01:34.546Z</time></trkpt><trkpt lat="9.9310598" lon="-84.1163806"><ele>1071.0</ele><time>2026-04-13T22:01:35.547Z</time></trkpt><trkpt lat="9.9309064" lon="-84.1163895"><ele>1071.0</ele><time>2026-04-13T22:01:36.545Z</time></trkpt><trkpt lat="9.9307544" lon="-84.1163965"><ele>1068.3333333333333</ele><time>2026-04-13T22:01:37.547Z</time></trkpt><trkpt lat="9.9305952" lon="-84.1164025"><ele>1065.6666666666665</ele><time>2026-04-13T22:01:38.546Z</time></trkpt><trkpt lat="9.9304388" lon="-84.1164046"><ele>1063.0</ele><time>2026-04-13T22:01:39.546Z</time></trkpt><trkpt lat="9.9302832" lon="-84.1164073"><ele>1063.0</ele><time>2026-04-13T22:01:40.546Z</time></trkpt><trkpt lat="9.9301255" lon="-84.1164113"><ele>1063.0</ele><time>2026-04-13T22:01:41.547Z</time></trkpt><trkpt lat="9.9299692" lon="-84.1164111"><ele>1063.0</ele><time>2026-04-13T22:01:42.547Z</time></trkpt><trkpt lat="9.9298213" lon="-84.1164094"><ele>1065.25</ele><time>2026-04-13T22:01:43.546Z</time></trkpt><trkpt lat="9.9296769" lon="-84.1164061"><ele>1067.5</ele><time>2026-04-13T22:01:44.545Z</time></trkpt><trkpt lat="9.9295382" lon="-84.1163975"><ele>1069.75</ele><time>2026-04-13T22:01:45.546Z</time></trkpt><trkpt lat="9.9294104" lon="-84.1163888"><ele>1072.0</ele><time>2026-04-13T22:01:46.547Z</time></trkpt><trkpt lat="9.929284" lon="-84.1163771"><ele>1075.0</ele><time>2026-04-13T22:01:47.546Z</time></trkpt><trkpt lat="9.9291582" lon="-84.1163511"><ele>1078.0</ele><time>2026-04-13T22:01:48.545Z</time></trkpt><trkpt lat="9.9290287" lon="-84.1163215"><ele>1081.0</ele><time>2026-04-13T22:01:49.546Z</time></trkpt><trkpt lat="9.9288998" lon="-84.1162861"><ele>1084.0</ele><time>2026-04-13T22:01:50.545Z</time></trkpt><trkpt lat="9.9287664" lon="-84.1162443"><ele>1084.0</ele><time>2026-04-13T22:01:51.547Z</time></trkpt><trkpt lat="9.928633" lon="-84.1161887"><ele>1084.0</ele><time>2026-04-13T22:01:52.546Z</time></trkpt><trkpt lat="9.9284951" lon="-84.1161218"><ele>1084.0</ele><time>2026-04-13T22:01:53.547Z</time></trkpt><trkpt lat="9.9283573" lon="-84.1160461"><ele>1083.6666666666665</ele><time>2026-04-13T22:01:54.547Z</time></trkpt><trkpt lat="9.9282184" lon="-84.1159664"><ele>1083.3333333333333</ele><time>2026-04-13T22:01:55.546Z</time></trkpt><trkpt lat="9.9280837" lon="-84.1158749"><ele>1083.0</ele><time>2026-04-13T22:01:56.546Z</time></trkpt><trkpt lat="9.9279644" lon="-84.1157819"><ele>1085.5</ele><time>2026-04-13T22:01:57.546Z</time></trkpt><trkpt lat="9.9278533" lon="-84.1156852"><ele>1088.0</ele><time>2026-04-13T22:01:58.546Z</time></trkpt><trkpt lat="9.9277482" lon="-84.1155829"><ele>1090.5</ele><time>2026-04-13T22:01:59.546Z</time></trkpt><trkpt lat="9.9276496" lon="-84.1154754"><ele>1093.0</ele><time>2026-04-13T22:02:00.546Z</time></trkpt><trkpt lat="9.9275548" lon="-84.1153633"><ele>1093.0</ele><time>2026-04-13T22:02:01.546Z</time></trkpt><trkpt lat="9.9274678" lon="-84.1152444"><ele>1093.0</ele><time>2026-04-13T22:02:02.546Z</time></trkpt><trkpt lat="9.9273824" lon="-84.1151205"><ele>1093.0</ele><time>2026-04-13T22:02:03.547Z</time></trkpt><trkpt lat="9.927306" lon="-84.1149899"><ele>1093.0</ele><time>2026-04-13T22:02:04.545Z</time></trkpt><trkpt lat="9.9272334" lon="-84.1148644"><ele>1095.25</ele><time>2026-04-13T22:02:05.546Z</time></trkpt><trkpt lat="9.9271616" lon="-84.1147377"><ele>1097.5</ele><time>2026-04-13T22:02:06.546Z</time></trkpt><trkpt lat="9.9270905" lon="-84.1146171"><ele>1099.75</ele><time>2026-04-13T22:02:07.546Z</time></trkpt><trkpt lat="9.9270186" lon="-84.1144886"><ele>1102.0</ele><time>2026-04-13T22:02:08.546Z</time></trkpt><trkpt lat="9.9269493" lon="-84.1143644"><ele>1102.0</ele><time>2026-04-13T22:02:09.547Z</time></trkpt><trkpt lat="9.9268803" lon="-84.1142384"><ele>1102.0</ele><time>2026-04-13T22:02:10.546Z</time></trkpt><trkpt lat="9.9268115" lon="-84.1141154"><ele>1102.0</ele><time>2026-04-13T22:02:11.546Z</time></trkpt><trkpt lat="9.926746" lon="-84.1139971"><ele>1102.0</ele><time>2026-04-13T22:02:12.547Z</time></trkpt><trkpt lat="9.9266786" lon="-84.1138788"><ele>1103.0</ele><time>2026-04-13T22:02:13.546Z</time></trkpt><trkpt lat="9.9266147" lon="-84.1137726"><ele>1104.0</ele><time>2026-04-13T22:02:14.547Z</time></trkpt><trkpt lat="9.9265556" lon="-84.1136617"><ele>1105.0</ele><time>2026-04-13T22:02:15.546Z</time></trkpt><trkpt lat="9.9264969" lon="-84.1135556"><ele>1106.0</ele><time>2026-04-13T22:02:16.546Z</time></trkpt><trkpt lat="9.9264406" lon="-84.1134554"><ele>1106.0</ele><time>2026-04-13T22:02:17.545Z</time></trkpt><trkpt lat="9.926388" lon="-84.1133616"><ele>1106.0</ele><time>2026-04-13T22:02:18.546Z</time></trkpt><trkpt lat="9.9263384" lon="-84.1132771"><ele>1106.0</ele><time>2026-04-13T22:02:19.547Z</time></trkpt><trkpt lat="9.9262995" lon="-84.1132148"><ele>1106.0</ele><time>2026-04-13T22:02:20.546Z</time></trkpt><trkpt lat="9.9262653" lon="-84.1131548"><ele>1106.0</ele><time>2026-04-13T22:02:21.546Z</time></trkpt><trkpt lat="9.9262177" lon="-84.1130719"><ele>1106.0</ele><time>2026-04-13T22:02:23.547Z</time></trkpt><trkpt lat="9.9261705" lon="-84.1130081"><ele>1106.6</ele><time>2026-04-13T22:02:26.547Z</time></trkpt><trkpt lat="9.9261136" lon="-84.1129167"><ele>1107.1999999999998</ele><time>2026-04-13T22:02:53.546Z</time></trkpt><trkpt lat="9.9260752" lon="-84.112855"><ele>1107.8000000000002</ele><time>2026-04-13T22:02:54.546Z</time></trkpt><trkpt lat="9.9260308" lon="-84.1127822"><ele>1108.4</ele><time>2026-04-13T22:02:55.546Z</time></trkpt><trkpt lat="9.925982" lon="-84.1127063"><ele>1109.0</ele><time>2026-04-13T22:02:56.546Z</time></trkpt><trkpt lat="9.9259282" lon="-84.1126016"><ele>1109.0</ele><time>2026-04-13T22:02:57.546Z</time></trkpt><trkpt lat="9.9258665" lon="-84.1124922"><ele>1109.0</ele><time>2026-04-13T22:02:58.546Z</time></trkpt><trkpt lat="9.9257985" lon="-84.1123687"><ele>1109.0</ele><time>2026-04-13T22:02:59.546Z</time></trkpt><trkpt lat="9.9257188" lon="-84.1122358"><ele>1109.0</ele><time>2026-04-13T22:03:00.545Z</time></trkpt><trkpt lat="9.9256338" lon="-84.1120856"><ele>1110.0</ele><time>2026-04-13T22:03:01.547Z</time></trkpt><trkpt lat="9.925539" lon="-84.1119354"><ele>1111.0</ele><time>2026-04-13T22:03:02.546Z</time></trkpt><trkpt lat="9.9254429" lon="-84.1117694"><ele>1112.0</ele><time>2026-04-13T22:03:03.545Z</time></trkpt><trkpt lat="9.9253404" lon="-84.1115993"><ele>1113.6666666666667</ele><time>2026-04-13T22:03:04.546Z</time></trkpt><trkpt lat="9.9252402" lon="-84.1114267"><ele>1115.3333333333333</ele><time>2026-04-13T22:03:05.546Z</time></trkpt><trkpt lat="9.9251371" lon="-84.1112398"><ele>1117.0</ele><time>2026-04-13T22:03:06.546Z</time></trkpt><trkpt lat="9.9250268" lon="-84.1110405"><ele>1117.0</ele><time>2026-04-13T22:03:07.546Z</time></trkpt><trkpt lat="9.924916" lon="-84.1108386"><ele>1117.0</ele><time>2026-04-13T22:03:08.545Z</time></trkpt><trkpt lat="9.9247995" lon="-84.1106353"><ele>1118.5</ele><time>2026-04-13T22:03:09.546Z</time></trkpt><trkpt lat="9.9246796" lon="-84.1104248"><ele>1120.0</ele><time>2026-04-13T22:03:10.546Z</time></trkpt><trkpt lat="9.9245557" lon="-84.1102069"><ele>1120.0</ele><time>2026-04-13T22:03:11.546Z</time></trkpt><trkpt lat="9.924436" lon="-84.109979"><ele>1120.0</ele><time>2026-04-13T22:03:12.546Z</time></trkpt><trkpt lat="9.9243033" lon="-84.1097255"><ele>1120.0</ele><time>2026-04-13T22:03:13.546Z</time></trkpt><trkpt lat="9.9241678" lon="-84.1094754"><ele>1120.0</ele><time>2026-04-13T22:03:14.546Z</time></trkpt><trkpt lat="9.9240183" lon="-84.1092163"><ele>1121.5</ele><time>2026-04-13T22:03:15.545Z</time></trkpt><trkpt lat="9.9238697" lon="-84.1089521"><ele>1123.0</ele><time>2026-04-13T22:03:16.546Z</time></trkpt><trkpt lat="9.9237185" lon="-84.1087035"><ele>1123.0</ele><time>2026-04-13T22:03:17.545Z</time></trkpt><trkpt lat="9.9235716" lon="-84.1084903"><ele>1123.0</ele><time>2026-04-13T22:03:18.545Z</time></trkpt><trkpt lat="9.9234166" lon="-84.1082871"><ele>1123.0</ele><time>2026-04-13T22:03:19.545Z</time></trkpt><trkpt lat="9.9232526" lon="-84.1081014"><ele>1123.0</ele><time>2026-04-13T22:03:20.546Z</time></trkpt><trkpt lat="9.9230711" lon="-84.1079321"><ele>1123.0</ele><time>2026-04-13T22:03:21.545Z</time></trkpt><trkpt lat="9.922877" lon="-84.1077766"><ele>1123.0</ele><time>2026-04-13T22:03:22.546Z</time></trkpt><trkpt lat="9.9226767" lon="-84.1076324"><ele>1124.0</ele><time>2026-04-13T22:03:23.546Z</time></trkpt><trkpt lat="9.9224723" lon="-84.1075135"><ele>1125.0</ele><time>2026-04-13T22:03:24.546Z</time></trkpt><trkpt lat="9.9222673" lon="-84.1074051"><ele>1125.0</ele><time>2026-04-13T22:03:25.546Z</time></trkpt><trkpt lat="9.9220606" lon="-84.1073151"><ele>1125.0</ele><time>2026-04-13T22:03:26.546Z</time></trkpt><trkpt lat="9.9218393" lon="-84.1072387"><ele>1123.0</ele><time>2026-04-13T22:03:27.546Z</time></trkpt><trkpt lat="9.9216266" lon="-84.1071724"><ele>1121.0</ele><time>2026-04-13T22:03:28.545Z</time></trkpt><trkpt lat="9.9214198" lon="-84.1071234"><ele>1119.0</ele><time>2026-04-13T22:03:29.546Z</time></trkpt><trkpt lat="9.9212077" lon="-84.1070719"><ele>1119.0</ele><time>2026-04-13T22:03:30.546Z</time></trkpt><trkpt lat="9.9209843" lon="-84.1070292"><ele>1119.0</ele><time>2026-04-13T22:03:31.545Z</time></trkpt><trkpt lat="9.920769" lon="-84.1069876"><ele>1119.0</ele><time>2026-04-13T22:03:32.544Z</time></trkpt><trkpt lat="9.9205586" lon="-84.1069464"><ele>1116.6666666666667</ele><time>2026-04-13T22:03:33.545Z</time></trkpt><trkpt lat="9.9203692" lon="-84.1069052"><ele>1114.3333333333335</ele><time>2026-04-13T22:03:34.545Z</time></trkpt><trkpt lat="9.9201827" lon="-84.1068785"><ele>1112.0</ele><time>2026-04-13T22:03:35.545Z</time></trkpt><trkpt lat="9.9199987" lon="-84.1068547"><ele>1111.6666666666667</ele><time>2026-04-13T22:03:36.546Z</time></trkpt><trkpt lat="9.9198151" lon="-84.106822"><ele>1111.3333333333333</ele><time>2026-04-13T22:03:37.547Z</time></trkpt><trkpt lat="9.9196404" lon="-84.1067989"><ele>1111.0</ele><time>2026-04-13T22:03:38.546Z</time></trkpt><trkpt lat="9.9194827" lon="-84.10677"><ele>1111.0</ele><time>2026-04-13T22:03:39.546Z</time></trkpt><trkpt lat="9.919338" lon="-84.1067433"><ele>1111.0</ele><time>2026-04-13T22:03:40.545Z</time></trkpt><trkpt lat="9.9192032" lon="-84.1067161"><ele>1111.0</ele><time>2026-04-13T22:03:41.545Z</time></trkpt><trkpt lat="9.9190612" lon="-84.1066812"><ele>1111.0</ele><time>2026-04-13T22:03:42.546Z</time></trkpt><trkpt lat="9.9189112" lon="-84.1066446"><ele>1111.0</ele><time>2026-04-13T22:03:43.545Z</time></trkpt><trkpt lat="9.9187699" lon="-84.1066163"><ele>1111.0</ele><time>2026-04-13T22:03:44.547Z</time></trkpt><trkpt lat="9.9186368" lon="-84.1065912"><ele>1111.0</ele><time>2026-04-13T22:03:45.546Z</time></trkpt><trkpt lat="9.9185101" lon="-84.1065637"><ele>1111.0</ele><time>2026-04-13T22:03:46.545Z</time></trkpt><trkpt lat="9.9183806" lon="-84.1065389"><ele>1110.0</ele><time>2026-04-13T22:03:47.545Z</time></trkpt><trkpt lat="9.9182334" lon="-84.1065124"><ele>1109.0</ele><time>2026-04-13T22:03:48.546Z</time></trkpt><trkpt lat="9.918081" lon="-84.1064856"><ele>1108.0</ele><time>2026-04-13T22:03:49.545Z</time></trkpt><trkpt lat="9.9179355" lon="-84.1064575"><ele>1108.0</ele><time>2026-04-13T22:03:50.545Z</time></trkpt><trkpt lat="9.9177836" lon="-84.1064296"><ele>1108.0</ele><time>2026-04-13T22:03:51.546Z</time></trkpt><trkpt lat="9.9176366" lon="-84.1064003"><ele>1108.0</ele><time>2026-04-13T22:03:52.545Z</time></trkpt><trkpt lat="9.9174981" lon="-84.1063757"><ele>1108.0</ele><time>2026-04-13T22:03:53.546Z</time></trkpt><trkpt lat="9.9173593" lon="-84.1063515"><ele>1108.25</ele><time>2026-04-13T22:03:54.546Z</time></trkpt><trkpt lat="9.9172193" lon="-84.106325"><ele>1108.5</ele><time>2026-04-13T22:03:55.546Z</time></trkpt><trkpt lat="9.9170694" lon="-84.1062943"><ele>1108.75</ele><time>2026-04-13T22:03:56.545Z</time></trkpt><trkpt lat="9.9169215" lon="-84.1062654"><ele>1109.0</ele><time>2026-04-13T22:03:57.545Z</time></trkpt><trkpt lat="9.9167776" lon="-84.1062361"><ele>1109.5</ele><time>2026-04-13T22:03:58.546Z</time></trkpt><trkpt lat="9.9166386" lon="-84.1062138"><ele>1110.0</ele><time>2026-04-13T22:03:59.545Z</time></trkpt><trkpt lat="9.9164965" lon="-84.1061873"><ele>1110.5</ele><time>2026-04-13T22:04:00.546Z</time></trkpt><trkpt lat="9.9163431" lon="-84.1061581"><ele>1111.0</ele><time>2026-04-13T22:04:01.546Z</time></trkpt><trkpt lat="9.9161833" lon="-84.1061298"><ele>1111.0</ele><time>2026-04-13T22:04:02.545Z</time></trkpt><trkpt lat="9.9160109" lon="-84.1061028"><ele>1111.0</ele><time>2026-04-13T22:04:03.546Z</time></trkpt><trkpt lat="9.9158215" lon="-84.1060785"><ele>1111.0</ele><time>2026-04-13T22:04:04.545Z</time></trkpt><trkpt lat="9.9156235" lon="-84.1060473"><ele>1111.0</ele><time>2026-04-13T22:04:05.546Z</time></trkpt><trkpt lat="9.9154083" lon="-84.1060116"><ele>1111.0</ele><time>2026-04-13T22:04:06.545Z</time></trkpt><trkpt lat="9.9151892" lon="-84.1059729"><ele>1111.0</ele><time>2026-04-13T22:04:07.545Z</time></trkpt><trkpt lat="9.9149655" lon="-84.1059336"><ele>1111.0</ele><time>2026-04-13T22:04:08.546Z</time></trkpt><trkpt lat="9.9147303" lon="-84.1058914"><ele>1111.0</ele><time>2026-04-13T22:04:09.545Z</time></trkpt><trkpt lat="9.9144946" lon="-84.1058395"><ele>1111.0</ele><time>2026-04-13T22:04:10.546Z</time></trkpt><trkpt lat="9.9142717" lon="-84.1057755"><ele>1111.0</ele><time>2026-04-13T22:04:11.546Z</time></trkpt><trkpt lat="9.9140681" lon="-84.1056976"><ele>1111.0</ele><time>2026-04-13T22:04:12.546Z</time></trkpt><trkpt lat="9.9138794" lon="-84.1056062"><ele>1111.0</ele><time>2026-04-13T22:04:13.546Z</time></trkpt><trkpt lat="9.9136975" lon="-84.1054993"><ele>1111.0</ele><time>2026-04-13T22:04:14.546Z</time></trkpt><trkpt lat="9.9135249" lon="-84.1053788"><ele>1111.0</ele><time>2026-04-13T22:04:15.545Z</time></trkpt><trkpt lat="9.9133792" lon="-84.1052483"><ele>1111.0</ele><time>2026-04-13T22:04:16.547Z</time></trkpt><trkpt lat="9.9132427" lon="-84.105114"><ele>1111.0</ele><time>2026-04-13T22:04:17.546Z</time></trkpt><trkpt lat="9.9131264" lon="-84.1049621"><ele>1111.0</ele><time>2026-04-13T22:04:18.545Z</time></trkpt><trkpt lat="9.9130154" lon="-84.1048032"><ele>1111.0</ele><time>2026-04-13T22:04:19.545Z</time></trkpt><trkpt lat="9.9129182" lon="-84.1046333"><ele>1111.0</ele><time>2026-04-13T22:04:20.547Z</time></trkpt><trkpt lat="9.9128363" lon="-84.1044594"><ele>1111.0</ele><time>2026-04-13T22:04:21.546Z</time></trkpt><trkpt lat="9.9127658" lon="-84.1042733"><ele>1111.0</ele><time>2026-04-13T22:04:22.546Z</time></trkpt><trkpt lat="9.9127037" lon="-84.1040837"><ele>1111.0</ele><time>2026-04-13T22:04:23.547Z</time></trkpt><trkpt lat="9.9126409" lon="-84.103894"><ele>1111.0</ele><time>2026-04-13T22:04:24.546Z</time></trkpt><trkpt lat="9.9125786" lon="-84.1037196"><ele>1113.3333333333333</ele><time>2026-04-13T22:04:25.547Z</time></trkpt><trkpt lat="9.9125228" lon="-84.1035544"><ele>1115.6666666666667</ele><time>2026-04-13T22:04:26.546Z</time></trkpt><trkpt lat="9.9124658" lon="-84.1033925"><ele>1118.0</ele><time>2026-04-13T22:04:27.546Z</time></trkpt><trkpt lat="9.9124104" lon="-84.1032334"><ele>1119.0</ele><time>2026-04-13T22:04:28.545Z</time></trkpt><trkpt lat="9.9123584" lon="-84.103085"><ele>1120.0</ele><time>2026-04-13T22:04:29.544Z</time></trkpt><trkpt lat="9.9123096" lon="-84.1029455"><ele>1121.0</ele><time>2026-04-13T22:04:30.546Z</time></trkpt><trkpt lat="9.9122555" lon="-84.1028133"><ele>1122.0</ele><time>2026-04-13T22:04:31.546Z</time></trkpt><trkpt lat="9.9122036" lon="-84.1026724"><ele>1122.0</ele><time>2026-04-13T22:04:32.545Z</time></trkpt><trkpt lat="9.912152" lon="-84.1025326"><ele>1122.0</ele><time>2026-04-13T22:04:33.547Z</time></trkpt><trkpt lat="9.9120989" lon="-84.1023854"><ele>1122.0</ele><time>2026-04-13T22:04:34.546Z</time></trkpt><trkpt lat="9.9120381" lon="-84.1022352"><ele>1122.25</ele><time>2026-04-13T22:04:35.547Z</time></trkpt><trkpt lat="9.9119842" lon="-84.1020938"><ele>1122.5</ele><time>2026-04-13T22:04:36.545Z</time></trkpt><trkpt lat="9.9119301" lon="-84.1019581"><ele>1122.75</ele><time>2026-04-13T22:04:37.546Z</time></trkpt><trkpt lat="9.9118821" lon="-84.1018271"><ele>1123.0</ele><time>2026-04-13T22:04:38.547Z</time></trkpt><trkpt lat="9.9118349" lon="-84.1016998"><ele>1123.25</ele><time>2026-04-13T22:04:39.546Z</time></trkpt><trkpt lat="9.9117874" lon="-84.1015689"><ele>1123.5</ele><time>2026-04-13T22:04:40.546Z</time></trkpt><trkpt lat="9.9117443" lon="-84.1014445"><ele>1123.75</ele><time>2026-04-13T22:04:41.547Z</time></trkpt><trkpt lat="9.9116922" lon="-84.1013137"><ele>1124.0</ele><time>2026-04-13T22:04:42.546Z</time></trkpt><trkpt lat="9.9116424" lon="-84.1011822"><ele>1123.25</ele><time>2026-04-13T22:04:43.546Z</time></trkpt><trkpt lat="9.9115977" lon="-84.1010562"><ele>1122.5</ele><time>2026-04-13T22:04:44.544Z</time></trkpt><trkpt lat="9.9115564" lon="-84.1009323"><ele>1121.75</ele><time>2026-04-13T22:04:45.546Z</time></trkpt><trkpt lat="9.911515" lon="-84.1008057"><ele>1121.0</ele><time>2026-04-13T22:04:46.545Z</time></trkpt><trkpt lat="9.9114762" lon="-84.1006843"><ele>1120.8</ele><time>2026-04-13T22:04:47.546Z</time></trkpt><trkpt lat="9.9114372" lon="-84.1005688"><ele>1120.6</ele><time>2026-04-13T22:04:48.546Z</time></trkpt><trkpt lat="9.911399" lon="-84.1004616"><ele>1120.4</ele><time>2026-04-13T22:04:49.544Z</time></trkpt><trkpt lat="9.9113651" lon="-84.1003585"><ele>1120.2</ele><time>2026-04-13T22:04:50.546Z</time></trkpt><trkpt lat="9.9113331" lon="-84.100264"><ele>1120.0</ele><time>2026-04-13T22:04:51.544Z</time></trkpt><trkpt lat="9.9113" lon="-84.1001783"><ele>1120.0</ele><time>2026-04-13T22:04:52.547Z</time></trkpt><trkpt lat="9.9112746" lon="-84.1000978"><ele>1120.0</ele><time>2026-04-13T22:04:53.544Z</time></trkpt><trkpt lat="9.9112335" lon="-84.099972"><ele>1120.0</ele><time>2026-04-13T22:04:55.546Z</time></trkpt><trkpt lat="9.9111838" lon="-84.0998709"><ele>1120.0</ele><time>2026-04-13T22:04:57.547Z</time></trkpt><trkpt lat="9.9111088" lon="-84.0997773"><ele>1120.0</ele><time>2026-04-13T22:04:59.546Z</time></trkpt><trkpt lat="9.9110129" lon="-84.0997113"><ele>1119.6666666666665</ele><time>2026-04-13T22:05:01.545Z</time></trkpt><trkpt lat="9.9109151" lon="-84.0996617"><ele>1119.3333333333333</ele><time>2026-04-13T22:05:03.546Z</time></trkpt><trkpt lat="9.9108319" lon="-84.099602"><ele>1119.0</ele><time>2026-04-13T22:05:05.546Z</time></trkpt><trkpt lat="9.9107805" lon="-84.0995507"><ele>1118.6666666666667</ele><time>2026-04-13T22:05:07.546Z</time></trkpt><trkpt lat="9.9107446" lon="-84.0994897"><ele>1118.3333333333335</ele><time>2026-04-13T22:05:10.545Z</time></trkpt><trkpt lat="9.9107131" lon="-84.0994261"><ele>1118.0</ele><time>2026-04-13T22:05:14.545Z</time></trkpt><trkpt lat="9.9106616" lon="-84.0993807"><ele>1118.0</ele><time>2026-04-13T22:05:19.545Z</time></trkpt><trkpt lat="9.9105895" lon="-84.0993311"><ele>1118.0</ele><time>2026-04-13T22:05:22.544Z</time></trkpt><trkpt lat="9.9105092" lon="-84.0992921"><ele>1118.0</ele><time>2026-04-13T22:05:24.546Z</time></trkpt><trkpt lat="9.9104211" lon="-84.0992662"><ele>1118.0</ele><time>2026-04-13T22:05:26.546Z</time></trkpt><trkpt lat="9.9103535" lon="-84.0992537"><ele>1118.0</ele><time>2026-04-13T22:05:28.547Z</time></trkpt><trkpt lat="9.9102739" lon="-84.099232"><ele>1118.0</ele><time>2026-04-13T22:05:30.546Z</time></trkpt><trkpt lat="9.9101813" lon="-84.0992114"><ele>1118.0</ele><time>2026-04-13T22:05:32.546Z</time></trkpt><trkpt lat="9.9101014" lon="-84.0991896"><ele>1118.0</ele><time>2026-04-13T22:05:34.545Z</time></trkpt><trkpt lat="9.9100275" lon="-84.0991749"><ele>1118.0</ele><time>2026-04-13T22:05:36.545Z</time></trkpt><trkpt lat="9.9099625" lon="-84.0991556"><ele>1118.0</ele><time>2026-04-13T22:05:38.546Z</time></trkpt><trkpt lat="9.9099012" lon="-84.0991374"><ele>1118.0</ele><time>2026-04-13T22:05:42.544Z</time></trkpt><trkpt lat="9.9098409" lon="-84.0991161"><ele>1118.0</ele><time>2026-04-13T22:05:51.546Z</time></trkpt><trkpt lat="9.9097794" lon="-84.0990935"><ele>1118.0</ele><time>2026-04-13T22:05:55.545Z</time></trkpt><trkpt lat="9.9097178" lon="-84.099056"><ele>1118.2857142857142</ele><time>2026-04-13T22:05:59.545Z</time></trkpt><trkpt lat="9.9096505" lon="-84.0990236"><ele>1118.5714285714287</ele><time>2026-04-13T22:06:05.546Z</time></trkpt><trkpt lat="9.9095864" lon="-84.0989884"><ele>1118.857142857143</ele><time>2026-04-13T22:06:08.545Z</time></trkpt><trkpt lat="9.9095201" lon="-84.0989386"><ele>1119.142857142857</ele><time>2026-04-13T22:06:12.546Z</time></trkpt><trkpt lat="9.9094606" lon="-84.0988971"><ele>1119.4285714285716</ele><time>2026-04-13T22:06:16.544Z</time></trkpt><trkpt lat="9.9094019" lon="-84.0988537"><ele>1119.7142857142858</ele><time>2026-04-13T22:06:20.545Z</time></trkpt><trkpt lat="9.9093488" lon="-84.0988178"><ele>1120.0</ele><time>2026-04-13T22:06:25.545Z</time></trkpt><trkpt lat="9.9092915" lon="-84.0987798"><ele>1120.0</ele><time>2026-04-13T22:06:30.545Z</time></trkpt><trkpt lat="9.9092426" lon="-84.0987318"><ele>1120.0</ele><time>2026-04-13T22:06:33.545Z</time></trkpt><trkpt lat="9.909179" lon="-84.0986828"><ele>1120.0</ele><time>2026-04-13T22:06:37.545Z</time></trkpt><trkpt lat="9.9090978" lon="-84.0986281"><ele>1120.0</ele><time>2026-04-13T22:06:40.545Z</time></trkpt><trkpt lat="9.9090208" lon="-84.0985995"><ele>1120.0</ele><time>2026-04-13T22:06:42.544Z</time></trkpt><trkpt lat="9.9089506" lon="-84.0985832"><ele>1120.0</ele><time>2026-04-13T22:06:44.546Z</time></trkpt><trkpt lat="9.9088858" lon="-84.0985794"><ele>1119.4285714285713</ele><time>2026-04-13T22:06:46.544Z</time></trkpt><trkpt lat="9.908815" lon="-84.0985919"><ele>1118.857142857143</ele><time>2026-04-13T22:06:48.546Z</time></trkpt><trkpt lat="9.9087526" lon="-84.0986187"><ele>1118.2857142857142</ele><time>2026-04-13T22:06:50.545Z</time></trkpt><trkpt lat="9.9086981" lon="-84.098654"><ele>1117.7142857142858</ele><time>2026-04-13T22:06:59.546Z</time></trkpt><trkpt lat="9.9086411" lon="-84.098692"><ele>1117.142857142857</ele><time>2026-04-13T22:07:05.545Z</time></trkpt><trkpt lat="9.9086008" lon="-84.0987426"><ele>1116.5714285714284</ele><time>2026-04-13T22:07:14.545Z</time></trkpt><trkpt lat="9.908567" lon="-84.0988119"><ele>1116.0</ele><time>2026-04-13T22:07:22.545Z</time></trkpt><trkpt lat="9.9085573" lon="-84.0988804"><ele>1115.9999999999998</ele><time>2026-04-13T22:07:26.545Z</time></trkpt><trkpt lat="9.9085529" lon="-84.0989449"><ele>1116.0</ele><time>2026-04-13T22:07:33.544Z</time></trkpt><trkpt lat="9.9085597" lon="-84.0990107"><ele>1116.0</ele><time>2026-04-13T22:07:40.546Z</time></trkpt><trkpt lat="9.9085936" lon="-84.0990845"><ele>1116.0</ele><time>2026-04-13T22:07:45.544Z</time></trkpt><trkpt lat="9.9086421" lon="-84.0991592"><ele>1116.0</ele><time>2026-04-13T22:07:48.545Z</time></trkpt><trkpt lat="9.9086885" lon="-84.0992102"><ele>1115.9999999999998</ele><time>2026-04-13T22:07:50.546Z</time></trkpt><trkpt lat="9.9087429" lon="-84.0992627"><ele>1116.0</ele><time>2026-04-13T22:07:52.545Z</time></trkpt><trkpt lat="9.9087905" lon="-84.0993115"><ele>1115.7142857142856</ele><time>2026-04-13T22:07:54.545Z</time></trkpt><trkpt lat="9.9088509" lon="-84.0993765"><ele>1115.4285714285713</ele><time>2026-04-13T22:07:57.545Z</time></trkpt><trkpt lat="9.9088867" lon="-84.0994372"><ele>1115.142857142857</ele><time>2026-04-13T22:08:00.544Z</time></trkpt><trkpt lat="9.9089252" lon="-84.099496"><ele>1114.8571428571427</ele><time>2026-04-13T22:08:03.545Z</time></trkpt><trkpt lat="9.90894" lon="-84.0995665"><ele>1114.5714285714284</ele><time>2026-04-13T22:08:07.546Z</time></trkpt><trkpt lat="9.9089364" lon="-84.0996306"><ele>1114.2857142857142</ele><time>2026-04-13T22:08:11.545Z</time></trkpt><trkpt lat="9.9089175" lon="-84.0997012"><ele>1114.0</ele><time>2026-04-13T22:08:15.545Z</time></trkpt><trkpt lat="9.9088977" lon="-84.0997763"><ele>1114.0</ele><time>2026-04-13T22:08:19.545Z</time></trkpt><trkpt lat="9.9088779" lon="-84.0998515"><ele>1114.0</ele><time>2026-04-13T22:08:23.545Z</time></trkpt><trkpt lat="9.908862" lon="-84.0999292"><ele>1114.0</ele><time>2026-04-13T22:08:27.545Z</time></trkpt><trkpt lat="9.908843" lon="-84.0999926"><ele>1114.0</ele><time>2026-04-13T22:08:30.545Z</time></trkpt><trkpt lat="9.9088226" lon="-84.1000594"><ele>1114.0</ele><time>2026-04-13T22:08:33.545Z</time></trkpt><trkpt lat="9.9087978" lon="-84.100126"><ele>1114.0</ele><time>2026-04-13T22:08:36.543Z</time></trkpt><trkpt lat="9.9087644" lon="-84.1001915"><ele>1114.0</ele><time>2026-04-13T22:08:38.544Z</time></trkpt><trkpt lat="9.9087176" lon="-84.1002872"><ele>1111.2</ele><time>2026-04-13T22:08:40.545Z</time></trkpt><trkpt lat="9.9086554" lon="-84.1003734"><ele>1108.4</ele><time>2026-04-13T22:08:42.544Z</time></trkpt><trkpt lat="9.9085879" lon="-84.1004345"><ele>1105.6</ele><time>2026-04-13T22:08:44.545Z</time></trkpt><trkpt lat="9.9085138" lon="-84.1004759"><ele>1102.8</ele><time>2026-04-13T22:08:46.545Z</time></trkpt><trkpt lat="9.9084106" lon="-84.1004965"><ele>1100.0</ele><time>2026-04-13T22:08:48.543Z</time></trkpt><trkpt lat="9.9083056" lon="-84.1004904"><ele>1100.0</ele><time>2026-04-13T22:08:50.543Z</time></trkpt><trkpt lat="9.908203" lon="-84.100445"><ele>1100.0</ele><time>2026-04-13T22:08:52.544Z</time></trkpt><trkpt lat="9.9081082" lon="-84.1003838"><ele>1100.0</ele><time>2026-04-13T22:08:54.546Z</time></trkpt><trkpt lat="9.9080226" lon="-84.1003324"><ele>1100.0</ele><time>2026-04-13T22:08:56.546Z</time></trkpt><trkpt lat="9.907927" lon="-84.100266"><ele>1100.0</ele><time>2026-04-13T22:08:58.546Z</time></trkpt><trkpt lat="9.9078248" lon="-84.1002117"><ele>1100.0</ele><time>2026-04-13T22:09:00.545Z</time></trkpt><trkpt lat="9.9077626" lon="-84.100175"><ele>1100.0</ele><time>2026-04-13T22:09:02.544Z</time></trkpt><trkpt lat="9.9077011" lon="-84.1001301"><ele>1100.0</ele><time>2026-04-13T22:09:06.544Z</time></trkpt><trkpt lat="9.9076474" lon="-84.1000881"><ele>1100.0</ele><time>2026-04-13T22:09:10.545Z</time></trkpt><trkpt lat="9.9075941" lon="-84.100054"><ele>1100.0</ele><time>2026-04-13T22:09:17.544Z</time></trkpt><trkpt lat="9.907541" lon="-84.1000177"><ele>1100.0</ele><time>2026-04-13T22:09:21.545Z</time></trkpt><trkpt lat="9.9074775" lon="-84.099974"><ele>1100.0</ele><time>2026-04-13T22:09:24.545Z</time></trkpt><trkpt lat="9.9074088" lon="-84.099919"><ele>1101.0</ele><time>2026-04-13T22:09:27.544Z</time></trkpt><trkpt lat="9.9073554" lon="-84.0998771"><ele>1102.0</ele><time>2026-04-13T22:09:31.545Z</time></trkpt><trkpt lat="9.9072913" lon="-84.09983"><ele>1103.0</ele><time>2026-04-13T22:09:38.545Z</time></trkpt><trkpt lat="9.9072207" lon="-84.0997796"><ele>1104.0</ele><time>2026-04-13T22:09:42.543Z</time></trkpt><trkpt lat="9.9071435" lon="-84.099729"><ele>1105.0</ele><time>2026-04-13T22:09:44.544Z</time></trkpt><trkpt lat="9.9070767" lon="-84.0996795"><ele>1106.0</ele><time>2026-04-13T22:09:46.545Z</time></trkpt><trkpt lat="9.9069691" lon="-84.0996374"><ele>1106.0</ele><time>2026-04-13T22:09:48.544Z</time></trkpt><trkpt lat="9.9068556" lon="-84.0996169"><ele>1106.0</ele><time>2026-04-13T22:09:50.545Z</time></trkpt><trkpt lat="9.9067482" lon="-84.0996149"><ele>1106.0</ele><time>2026-04-13T22:09:52.545Z</time></trkpt><trkpt lat="9.9066713" lon="-84.0996312"><ele>1106.0</ele><time>2026-04-13T22:09:54.543Z</time></trkpt><trkpt lat="9.9066001" lon="-84.0996676"><ele>1106.0</ele><time>2026-04-13T22:09:56.544Z</time></trkpt><trkpt lat="9.906516" lon="-84.0997212"><ele>1107.8333333333335</ele><time>2026-04-13T22:09:58.545Z</time></trkpt><trkpt lat="9.9064757" lon="-84.0997731"><ele>1109.6666666666667</ele><time>2026-04-13T22:09:59.545Z</time></trkpt><trkpt lat="9.9064265" lon="-84.0998269"><ele>1111.5</ele><time>2026-04-13T22:10:00.544Z</time></trkpt><trkpt lat="9.9063625" lon="-84.099902"><ele>1113.3333333333333</ele><time>2026-04-13T22:10:02.544Z</time></trkpt><trkpt lat="9.9063092" lon="-84.0999737"><ele>1115.1666666666665</ele><time>2026-04-13T22:10:05.544Z</time></trkpt><trkpt lat="9.9062362" lon="-84.1000455"><ele>1117.0</ele><time>2026-04-13T22:10:07.545Z</time></trkpt><trkpt lat="9.9061683" lon="-84.1001192"><ele>1118.6666666666665</ele><time>2026-04-13T22:10:09.543Z</time></trkpt><trkpt lat="9.9061128" lon="-84.1001548"><ele>1120.3333333333333</ele><time>2026-04-13T22:10:12.544Z</time></trkpt><trkpt lat="9.9060399" lon="-84.1001662"><ele>1122.0</ele><time>2026-04-13T22:10:19.544Z</time></trkpt><trkpt lat="9.9059629" lon="-84.1001994"><ele>1123.6666666666667</ele><time>2026-04-13T22:10:21.545Z</time></trkpt><trkpt lat="9.9058806" lon="-84.1002258"><ele>1125.3333333333335</ele><time>2026-04-13T22:10:23.545Z</time></trkpt><trkpt lat="9.9057998" lon="-84.1002418"><ele>1127.0</ele><time>2026-04-13T22:10:25.544Z</time></trkpt><trkpt lat="9.9057325" lon="-84.1002509"><ele>1127.2857142857142</ele><time>2026-04-13T22:10:27.543Z</time></trkpt><trkpt lat="9.9056671" lon="-84.1002519"><ele>1127.5714285714284</ele><time>2026-04-13T22:10:44.544Z</time></trkpt><trkpt lat="9.9056022" lon="-84.1002448"><ele>1127.857142857143</ele><time>2026-04-13T22:10:47.543Z</time></trkpt><trkpt lat="9.9055179" lon="-84.1002267"><ele>1128.142857142857</ele><time>2026-04-13T22:10:50.544Z</time></trkpt><trkpt lat="9.9054457" lon="-84.1002086"><ele>1128.4285714285713</ele><time>2026-04-13T22:10:53.545Z</time></trkpt><trkpt lat="9.9053797" lon="-84.1001937"><ele>1128.7142857142858</ele><time>2026-04-13T22:10:56.544Z</time></trkpt><trkpt lat="9.9053137" lon="-84.1001847"><ele>1129.0</ele><time>2026-04-13T22:11:00.544Z</time></trkpt><trkpt lat="9.9052461" lon="-84.1001699"><ele>1129.0</ele><time>2026-04-13T22:11:03.546Z</time></trkpt><trkpt lat="9.9051722" lon="-84.1001541"><ele>1129.0</ele><time>2026-04-13T22:11:06.544Z</time></trkpt><trkpt lat="9.9051113" lon="-84.1001316"><ele>1129.0</ele><time>2026-04-13T22:11:22.543Z</time></trkpt><trkpt lat="9.9050518" lon="-84.1001065"><ele>1129.0</ele><time>2026-04-13T22:11:25.545Z</time></trkpt><trkpt lat="9.9050383" lon="-84.0999809"><ele>1129.0</ele><time>2026-04-13T22:11:27.544Z</time></trkpt><trkpt lat="9.9050473" lon="-84.0999151"><ele>1129.0</ele><time>2026-04-13T22:11:28.544Z</time></trkpt><trkpt lat="9.9050695" lon="-84.0997937"><ele>1127.2</ele><time>2026-04-13T22:11:30.545Z</time></trkpt><trkpt lat="9.9050883" lon="-84.0996974"><ele>1125.4</ele><time>2026-04-13T22:11:32.544Z</time></trkpt><trkpt lat="9.9051014" lon="-84.0995964"><ele>1123.6</ele><time>2026-04-13T22:11:34.546Z</time></trkpt><trkpt lat="9.9051223" lon="-84.0994609"><ele>1121.8</ele><time>2026-04-13T22:11:36.545Z</time></trkpt><trkpt lat="9.905131" lon="-84.099393"><ele>1120.0</ele><time>2026-04-13T22:11:37.543Z</time></trkpt><trkpt lat="9.9051124" lon="-84.0992907"><ele>1121.4</ele><time>2026-04-13T22:11:39.544Z</time></trkpt><trkpt lat="9.9050203" lon="-84.0992482"><ele>1122.8</ele><time>2026-04-13T22:11:41.545Z</time></trkpt><trkpt lat="9.9048876" lon="-84.0992261"><ele>1124.2</ele><time>2026-04-13T22:11:43.545Z</time></trkpt><trkpt lat="9.9048147" lon="-84.0992121"><ele>1125.6</ele><time>2026-04-13T22:11:44.545Z</time></trkpt><trkpt lat="9.9047146" lon="-84.0991949"><ele>1127.0</ele><time>2026-04-13T22:11:46.544Z</time></trkpt><trkpt lat="9.9046517" lon="-84.0991572"><ele>1125.0</ele><time>2026-04-13T22:11:48.545Z</time></trkpt><trkpt lat="9.9045965" lon="-84.0990604"><ele>1123.0</ele><time>2026-04-13T22:11:50.546Z</time></trkpt><trkpt lat="9.9045663" lon="-84.0989922"><ele>1121.0</ele><time>2026-04-13T22:11:51.545Z</time></trkpt><trkpt lat="9.9045375" lon="-84.098924"><ele>1119.0</ele><time>2026-04-13T22:11:52.545Z</time></trkpt><trkpt lat="9.904507" lon="-84.0988546"><ele>1117.0</ele><time>2026-04-13T22:11:53.545Z</time></trkpt><trkpt lat="9.9044788" lon="-84.0987892"><ele>1115.0</ele><time>2026-04-13T22:11:54.545Z</time></trkpt><trkpt lat="9.9044461" lon="-84.0987273"><ele>1115.0</ele><time>2026-04-13T22:11:55.544Z</time></trkpt><trkpt lat="9.9043917" lon="-84.098634"><ele>1115.0</ele><time>2026-04-13T22:11:57.545Z</time></trkpt><trkpt lat="9.9043605" lon="-84.0985662"><ele>1115.0</ele><time>2026-04-13T22:11:59.545Z</time></trkpt><trkpt lat="9.9043276" lon="-84.0984862"><ele>1115.0</ele><time>2026-04-13T22:12:01.545Z</time></trkpt><trkpt lat="9.9042842" lon="-84.0983688"><ele>1115.0</ele><time>2026-04-13T22:12:03.544Z</time></trkpt><trkpt lat="9.9042495" lon="-84.098259"><ele>1115.6666666666667</ele><time>2026-04-13T22:12:05.544Z</time></trkpt><trkpt lat="9.9042289" lon="-84.0981829"><ele>1116.3333333333335</ele><time>2026-04-13T22:12:07.545Z</time></trkpt><trkpt lat="9.9041964" lon="-84.0980914"><ele>1117.0</ele><time>2026-04-13T22:12:09.544Z</time></trkpt><trkpt lat="9.9041624" lon="-84.0980272"><ele>1117.6666666666667</ele><time>2026-04-13T22:12:10.544Z</time></trkpt><trkpt lat="9.9041135" lon="-84.0979536"><ele>1118.3333333333333</ele><time>2026-04-13T22:12:11.544Z</time></trkpt><trkpt lat="9.9040537" lon="-84.0978938"><ele>1119.0</ele><time>2026-04-13T22:12:12.544Z</time></trkpt><trkpt lat="9.9039963" lon="-84.0978349"><ele>1119.0</ele><time>2026-04-13T22:12:13.544Z</time></trkpt><trkpt lat="9.9039437" lon="-84.0977791"><ele>1119.0</ele><time>2026-04-13T22:12:14.543Z</time></trkpt><trkpt lat="9.9038981" lon="-84.0977294"><ele>1119.0</ele><time>2026-04-13T22:12:15.544Z</time></trkpt><trkpt lat="9.9038301" lon="-84.0976686"><ele>1119.0</ele><time>2026-04-13T22:12:17.544Z</time></trkpt><trkpt lat="9.9037587" lon="-84.0976361"><ele>1119.0</ele><time>2026-04-13T22:12:20.545Z</time></trkpt><trkpt lat="9.9037165" lon="-84.0975705"><ele>1119.0</ele><time>2026-04-13T22:12:22.543Z</time></trkpt><trkpt lat="9.9036892" lon="-84.0975001"><ele>1119.0</ele><time>2026-04-13T22:12:23.544Z</time></trkpt><trkpt lat="9.9036621" lon="-84.0974298"><ele>1119.0</ele><time>2026-04-13T22:12:24.543Z</time></trkpt><trkpt lat="9.9036349" lon="-84.0973623"><ele>1119.0</ele><time>2026-04-13T22:12:25.545Z</time></trkpt><trkpt lat="9.9036007" lon="-84.0972631"><ele>1119.0</ele><time>2026-04-13T22:12:27.543Z</time></trkpt><trkpt lat="9.9035745" lon="-84.0971858"><ele>1119.0</ele><time>2026-04-13T22:12:29.543Z</time></trkpt><trkpt lat="9.903537" lon="-84.0970979"><ele>1119.0</ele><time>2026-04-13T22:12:31.544Z</time></trkpt><trkpt lat="9.9035045" lon="-84.0970355"><ele>1117.6666666666667</ele><time>2026-04-13T22:12:32.543Z</time></trkpt><trkpt lat="9.903475" lon="-84.096968"><ele>1116.3333333333333</ele><time>2026-04-13T22:12:33.544Z</time></trkpt><trkpt lat="9.9034434" lon="-84.0969114"><ele>1115.0</ele><time>2026-04-13T22:12:34.544Z</time></trkpt><trkpt lat="9.9034016" lon="-84.0968166"><ele>1113.6666666666665</ele><time>2026-04-13T22:12:36.544Z</time></trkpt><trkpt lat="9.9033527" lon="-84.0967295"><ele>1112.3333333333333</ele><time>2026-04-13T22:12:38.545Z</time></trkpt><trkpt lat="9.9032987" lon="-84.0966356"><ele>1111.0</ele><time>2026-04-13T22:12:40.544Z</time></trkpt><trkpt lat="9.903246" lon="-84.096541"><ele>1109.8333333333333</ele><time>2026-04-13T22:12:42.544Z</time></trkpt><trkpt lat="9.9031694" lon="-84.0964423"><ele>1108.6666666666665</ele><time>2026-04-13T22:12:44.544Z</time></trkpt><trkpt lat="9.9031273" lon="-84.0963919"><ele>1107.5</ele><time>2026-04-13T22:12:45.543Z</time></trkpt><trkpt lat="9.903066" lon="-84.0963274"><ele>1106.3333333333333</ele><time>2026-04-13T22:12:47.544Z</time></trkpt><trkpt lat="9.9030162" lon="-84.0962641"><ele>1105.1666666666667</ele><time>2026-04-13T22:12:49.544Z</time></trkpt><trkpt lat="9.9029774" lon="-84.0962103"><ele>1104.0</ele><time>2026-04-13T22:12:50.544Z</time></trkpt><trkpt lat="9.9029359" lon="-84.0961429"><ele>1104.0</ele><time>2026-04-13T22:12:51.543Z</time></trkpt><trkpt lat="9.9028884" lon="-84.0960689"><ele>1104.0</ele><time>2026-04-13T22:12:52.544Z</time></trkpt><trkpt lat="9.902843" lon="-84.0959928"><ele>1104.0</ele><time>2026-04-13T22:12:53.543Z</time></trkpt><trkpt lat="9.9027864" lon="-84.0959194"><ele>1104.0</ele><time>2026-04-13T22:12:54.544Z</time></trkpt><trkpt lat="9.9027348" lon="-84.0958499"><ele>1104.0</ele><time>2026-04-13T22:12:55.544Z</time></trkpt><trkpt lat="9.902679" lon="-84.0957771"><ele>1104.0</ele><time>2026-04-13T22:12:56.544Z</time></trkpt><trkpt lat="9.9026234" lon="-84.095701"><ele>1104.3333333333333</ele><time>2026-04-13T22:12:57.544Z</time></trkpt><trkpt lat="9.9025673" lon="-84.0956261"><ele>1104.6666666666667</ele><time>2026-04-13T22:12:58.544Z</time></trkpt><trkpt lat="9.9025068" lon="-84.0955657"><ele>1105.0</ele><time>2026-04-13T22:12:59.544Z</time></trkpt><trkpt lat="9.9024471" lon="-84.0955071"><ele>1105.3333333333335</ele><time>2026-04-13T22:13:00.543Z</time></trkpt><trkpt lat="9.9023857" lon="-84.0954478"><ele>1105.6666666666667</ele><time>2026-04-13T22:13:01.544Z</time></trkpt><trkpt lat="9.9023192" lon="-84.0953898"><ele>1106.0</ele><time>2026-04-13T22:13:02.544Z</time></trkpt><trkpt lat="9.9022542" lon="-84.0953464"><ele>1106.0</ele><time>2026-04-13T22:13:03.544Z</time></trkpt><trkpt lat="9.9021879" lon="-84.095305"><ele>1106.0</ele><time>2026-04-13T22:13:04.544Z</time></trkpt><trkpt lat="9.9021158" lon="-84.0952695"><ele>1106.0</ele><time>2026-04-13T22:13:05.544Z</time></trkpt><trkpt lat="9.9020385" lon="-84.0952394"><ele>1106.0</ele><time>2026-04-13T22:13:06.544Z</time></trkpt><trkpt lat="9.9019518" lon="-84.0952098"><ele>1106.0</ele><time>2026-04-13T22:13:07.544Z</time></trkpt><trkpt lat="9.9018697" lon="-84.0951801"><ele>1106.0</ele><time>2026-04-13T22:13:08.543Z</time></trkpt><trkpt lat="9.9017879" lon="-84.0951658"><ele>1107.3999999999999</ele><time>2026-04-13T22:13:09.544Z</time></trkpt><trkpt lat="9.9016976" lon="-84.0951427"><ele>1108.8</ele><time>2026-04-13T22:13:10.544Z</time></trkpt><trkpt lat="9.9016054" lon="-84.0951121"><ele>1110.1999999999998</ele><time>2026-04-13T22:13:11.544Z</time></trkpt><trkpt lat="9.9015203" lon="-84.0950754"><ele>1111.6</ele><time>2026-04-13T22:13:12.543Z</time></trkpt><trkpt lat="9.9014357" lon="-84.0950416"><ele>1113.0</ele><time>2026-04-13T22:13:13.543Z</time></trkpt><trkpt lat="9.901361" lon="-84.095002"><ele>1113.0</ele><time>2026-04-13T22:13:14.545Z</time></trkpt><trkpt lat="9.9012838" lon="-84.0949673"><ele>1113.0</ele><time>2026-04-13T22:13:15.544Z</time></trkpt><trkpt lat="9.9012101" lon="-84.0949487"><ele>1113.0</ele><time>2026-04-13T22:13:16.543Z</time></trkpt><trkpt lat="9.9011234" lon="-84.0949421"><ele>1113.0</ele><time>2026-04-13T22:13:17.543Z</time></trkpt><trkpt lat="9.9010413" lon="-84.0949359"><ele>1113.0</ele><time>2026-04-13T22:13:18.544Z</time></trkpt><trkpt lat="9.9009671" lon="-84.0949309"><ele>1113.0</ele><time>2026-04-13T22:13:19.543Z</time></trkpt><trkpt lat="9.9008926" lon="-84.0949381"><ele>1113.0</ele><time>2026-04-13T22:13:20.543Z</time></trkpt><trkpt lat="9.9008259" lon="-84.0949398"><ele>1113.0</ele><time>2026-04-13T22:13:21.544Z</time></trkpt><trkpt lat="9.9007102" lon="-84.0949415"><ele>1113.0</ele><time>2026-04-13T22:13:23.546Z</time></trkpt><trkpt lat="9.9006282" lon="-84.0949424"><ele>1113.0</ele><time>2026-04-13T22:13:25.544Z</time></trkpt><trkpt lat="9.9005545" lon="-84.0949421"><ele>1113.0</ele><time>2026-04-13T22:13:28.544Z</time></trkpt><trkpt lat="9.9004618" lon="-84.09489"><ele>1113.0</ele><time>2026-04-13T22:13:31.544Z</time></trkpt><trkpt lat="9.9004176" lon="-84.0948245"><ele>1113.0</ele><time>2026-04-13T22:13:32.544Z</time></trkpt><trkpt lat="9.9003726" lon="-84.0947285"><ele>1113.0</ele><time>2026-04-13T22:13:33.545Z</time></trkpt><trkpt lat="9.900316" lon="-84.0946175"><ele>1113.0</ele><time>2026-04-13T22:13:34.544Z</time></trkpt><trkpt lat="9.900254" lon="-84.0944963"><ele>1113.0</ele><time>2026-04-13T22:13:35.545Z</time></trkpt><trkpt lat="9.9001976" lon="-84.0943831"><ele>1113.0</ele><time>2026-04-13T22:13:36.544Z</time></trkpt><trkpt lat="9.9001431" lon="-84.0942832"><ele>1113.0</ele><time>2026-04-13T22:13:37.544Z</time></trkpt><trkpt lat="9.9000819" lon="-84.0941915"><ele>1113.0</ele><time>2026-04-13T22:13:38.544Z</time></trkpt><trkpt lat="9.9000174" lon="-84.0941109"><ele>1113.0</ele><time>2026-04-13T22:13:39.545Z</time></trkpt><trkpt lat="9.8999483" lon="-84.094043"><ele>1113.0</ele><time>2026-04-13T22:13:40.543Z</time></trkpt><trkpt lat="9.8998751" lon="-84.0939933"><ele>1113.0</ele><time>2026-04-13T22:13:41.544Z</time></trkpt><trkpt lat="9.8997945" lon="-84.0939483"><ele>1113.0</ele><time>2026-04-13T22:13:42.543Z</time></trkpt><trkpt lat="9.8997046" lon="-84.0939078"><ele>1113.0</ele><time>2026-04-13T22:13:43.544Z</time></trkpt><trkpt lat="9.8996087" lon="-84.0938719"><ele>1113.0</ele><time>2026-04-13T22:13:44.544Z</time></trkpt><trkpt lat="9.8995129" lon="-84.0938361"><ele>1113.0</ele><time>2026-04-13T22:13:45.544Z</time></trkpt><trkpt lat="9.8994266" lon="-84.0938069"><ele>1113.0</ele><time>2026-04-13T22:13:46.544Z</time></trkpt><trkpt lat="9.8993448" lon="-84.0937709"><ele>1113.0</ele><time>2026-04-13T22:13:47.544Z</time></trkpt><trkpt lat="9.8992665" lon="-84.0937366"><ele>1113.0</ele><time>2026-04-13T22:13:48.543Z</time></trkpt><trkpt lat="9.8991889" lon="-84.0936952"><ele>1113.0</ele><time>2026-04-13T22:13:49.544Z</time></trkpt><trkpt lat="9.8991174" lon="-84.0936558"><ele>1113.0</ele><time>2026-04-13T22:13:50.543Z</time></trkpt><trkpt lat="9.89905" lon="-84.0936168"><ele>1113.0</ele><time>2026-04-13T22:13:51.544Z</time></trkpt><trkpt lat="9.8989746" lon="-84.0935667"><ele>1113.2</ele><time>2026-04-13T22:13:53.544Z</time></trkpt><trkpt lat="9.8988957" lon="-84.0935022"><ele>1113.4</ele><time>2026-04-13T22:13:56.544Z</time></trkpt><trkpt lat="9.8988026" lon="-84.0934165"><ele>1113.6000000000001</ele><time>2026-04-13T22:13:58.544Z</time></trkpt><trkpt lat="9.8987316" lon="-84.0933658"><ele>1113.8</ele><time>2026-04-13T22:13:59.544Z</time></trkpt><trkpt lat="9.8986582" lon="-84.0933107"><ele>1114.0</ele><time>2026-04-13T22:14:00.544Z</time></trkpt><trkpt lat="9.8985886" lon="-84.0932469"><ele>1114.0</ele><time>2026-04-13T22:14:01.544Z</time></trkpt><trkpt lat="9.8985274" lon="-84.0931824"><ele>1114.0</ele><time>2026-04-13T22:14:02.544Z</time></trkpt><trkpt lat="9.8984698" lon="-84.093128"><ele>1114.0</ele><time>2026-04-13T22:14:03.544Z</time></trkpt><trkpt lat="9.8984211" lon="-84.093081"><ele>1114.0</ele><time>2026-04-13T22:14:04.544Z</time></trkpt><trkpt lat="9.8983542" lon="-84.0930253"><ele>1114.0</ele><time>2026-04-13T22:14:06.545Z</time></trkpt><trkpt lat="9.8982728" lon="-84.0929394"><ele>1114.0</ele><time>2026-04-13T22:14:09.544Z</time></trkpt><trkpt lat="9.8982244" lon="-84.0928953"><ele>1114.1666666666665</ele><time>2026-04-13T22:14:10.542Z</time></trkpt><trkpt lat="9.8981639" lon="-84.0928411"><ele>1114.3333333333333</ele><time>2026-04-13T22:14:11.543Z</time></trkpt><trkpt lat="9.8981021" lon="-84.0927885"><ele>1114.5</ele><time>2026-04-13T22:14:12.544Z</time></trkpt><trkpt lat="9.8980412" lon="-84.0927293"><ele>1114.6666666666667</ele><time>2026-04-13T22:14:13.543Z</time></trkpt><trkpt lat="9.8979883" lon="-84.092674"><ele>1114.8333333333335</ele><time>2026-04-13T22:14:14.544Z</time></trkpt><trkpt lat="9.8979393" lon="-84.0926234"><ele>1115.0</ele><time>2026-04-13T22:14:15.544Z</time></trkpt><trkpt lat="9.897889" lon="-84.0925664"><ele>1115.0</ele><time>2026-04-13T22:14:16.543Z</time></trkpt><trkpt lat="9.8978406" lon="-84.0925142"><ele>1115.0</ele><time>2026-04-13T22:14:17.543Z</time></trkpt><trkpt lat="9.897787" lon="-84.092436"><ele>1115.0</ele><time>2026-04-13T22:14:19.544Z</time></trkpt><trkpt lat="9.8977414" lon="-84.0923804"><ele>1115.0</ele><time>2026-04-13T22:14:22.544Z</time></trkpt><trkpt lat="9.8977426" lon="-84.092316"><ele>1115.0</ele><time>2026-04-13T22:14:24.544Z</time></trkpt><trkpt lat="9.8977946" lon="-84.0922513"><ele>1115.0</ele><time>2026-04-13T22:14:26.543Z</time></trkpt><trkpt lat="9.8978759" lon="-84.0922054"><ele>1115.0</ele><time>2026-04-13T22:14:28.544Z</time></trkpt><trkpt lat="9.8979747" lon="-84.0921988"><ele>1115.0</ele><time>2026-04-13T22:14:30.543Z</time></trkpt><trkpt lat="9.8980798" lon="-84.0921921"><ele>1115.0</ele><time>2026-04-13T22:14:32.544Z</time></trkpt><trkpt lat="9.898189" lon="-84.0921791"><ele>1115.0</ele><time>2026-04-13T22:14:34.544Z</time></trkpt><trkpt lat="9.8982522" lon="-84.0921761"><ele>1115.0</ele><time>2026-04-13T22:14:35.543Z</time></trkpt><trkpt lat="9.898321" lon="-84.0921754"><ele>1115.0</ele><time>2026-04-13T22:14:36.544Z</time></trkpt><trkpt lat="9.8984051" lon="-84.0921719"><ele>1114.8333333333335</ele><time>2026-04-13T22:14:37.543Z</time></trkpt><trkpt lat="9.8984797" lon="-84.0921691"><ele>1114.6666666666667</ele><time>2026-04-13T22:14:38.545Z</time></trkpt><trkpt lat="9.8985523" lon="-84.0921664"><ele>1114.5</ele><time>2026-04-13T22:14:39.544Z</time></trkpt><trkpt lat="9.898624" lon="-84.0921642"><ele>1114.3333333333333</ele><time>2026-04-13T22:14:40.544Z</time></trkpt><trkpt lat="9.8986948" lon="-84.0921764"><ele>1114.1666666666665</ele><time>2026-04-13T22:14:41.543Z</time></trkpt><trkpt lat="9.8987604" lon="-84.092189"><ele>1114.0</ele><time>2026-04-13T22:14:42.544Z</time></trkpt><trkpt lat="9.8988656" lon="-84.0922011"><ele>1114.0</ele><time>2026-04-13T22:14:44.543Z</time></trkpt><trkpt lat="9.8989591" lon="-84.0922174"><ele>1114.0</ele><time>2026-04-13T22:14:46.543Z</time></trkpt><trkpt lat="9.8990383" lon="-84.0921955"><ele>1114.0</ele><time>2026-04-13T22:14:48.544Z</time></trkpt><trkpt lat="9.8990815" lon="-84.092118"><ele>1114.0</ele><time>2026-04-13T22:14:50.543Z</time></trkpt><trkpt lat="9.8990977" lon="-84.0920165"><ele>1114.0</ele><time>2026-04-13T22:14:52.544Z</time></trkpt><trkpt lat="9.8991487" lon="-84.0919347"><ele>1114.0</ele><time>2026-04-13T22:14:54.544Z</time></trkpt><trkpt lat="9.8992221" lon="-84.0918811"><ele>1114.0</ele><time>2026-04-13T22:14:56.543Z</time></trkpt><trkpt lat="9.8993048" lon="-84.0918601"><ele>1111.0</ele><time>2026-04-13T22:14:58.545Z</time></trkpt></trkseg></trk></gpx>